AFR989 FKYS-LFPG
Flight info
| Callsign | AFR989 |
|---|---|
| Flight time | 7h 4m |
| Altitude | 36000 |
| Route | UMUSO1D UMUSO R874 DE UR874 DLA UP685 ARDEX DCT OPALA UR984 KELEX UM566 LIPUS UR983 OG UR866 BULIS DCT MABAP UR722 SAK UG5 KORIS L27 VJF DCT SVL/N0478F360 DCT HIJ DCT RUSEM DCT SOTUK DCT USOKO DCT TLD DCT SIE DCT EDIGO DCT DGO L176 LUSEM DCT LULUT DCT POI DCT PEPAX UT182 KEPER |
| Aircraft | B77W/H-SDE1E2E3FGHIJ2J3J4J5M1RWXY/LB1D1 |
Departure
| Time | 2026-04-18 20:27 |
|---|---|
| Airport | Yaoundé Nsimalen International Airport (FKYS) |
Arrival
| Time | 2026-04-19 03:32 |
|---|---|
| Airport | Charles de Gaulle International Airport (LFPG) |
| Time | Latitude | Longitude | Altitude | Speed | Heading |
|---|---|---|---|---|---|
| 2026-04-18 19:17 | 3.71365 | 11.54841 | 2258 ft | 0 kts | 310° |
| 2026-04-18 20:18 | 3.71360 | 11.54848 | 2259 ft | 2 kts | 302° |
| 2026-04-18 20:18 | 3.71353 | 11.54862 | 2258 ft | 2 kts | 283° |
| 2026-04-18 20:19 | 3.71351 | 11.54877 | 2258 ft | 2 kts | 269° |
| 2026-04-18 20:19 | 3.71353 | 11.54892 | 2258 ft | 2 kts | 253° |
| 2026-04-18 20:19 | 3.71359 | 11.54906 | 2258 ft | 2 kts | 238° |
| 2026-04-18 20:19 | 3.71368 | 11.54918 | 2257 ft | 2 kts | 223° |
| 2026-04-18 20:20 | 3.71380 | 11.54927 | 2257 ft | 2 kts | 208° |
| 2026-04-18 20:20 | 3.71394 | 11.54933 | 2257 ft | 2 kts | 193° |
| 2026-04-18 20:20 | 3.71409 | 11.54935 | 2257 ft | 2 kts | 183° |
| 2026-04-18 20:20 | 3.71423 | 11.54936 | 2257 ft | 1 kts | 184° |
| 2026-04-18 20:21 | 3.71426 | 11.54936 | 2257 ft | 0 kts | 185° |
| 2026-04-18 20:21 | 3.71425 | 11.54936 | 2257 ft | 0 kts | 185° |
| 2026-04-18 20:22 | 3.71421 | 11.54936 | 2257 ft | 3 kts | 185° |
| 2026-04-18 20:23 | 3.71381 | 11.54932 | 2257 ft | 5 kts | 183° |
| 2026-04-18 20:23 | 3.71349 | 11.54934 | 2257 ft | 3 kts | 165° |
| 2026-04-18 20:23 | 3.71334 | 11.54945 | 2257 ft | 2 kts | 129° |
| 2026-04-18 20:23 | 3.71321 | 11.54979 | 2256 ft | 7 kts | 105° |
| 2026-04-18 20:24 | 3.71308 | 11.55028 | 2255 ft | 7 kts | 105° |
| 2026-04-18 20:24 | 3.71293 | 11.55101 | 2253 ft | 12 kts | 101° |
| 2026-04-18 20:24 | 3.71291 | 11.55109 | 2253 ft | 0 kts | 101° |
| 2026-04-18 20:25 | 3.71291 | 11.55110 | 2253 ft | 2 kts | 104° |
| 2026-04-18 20:25 | 3.71231 | 11.55149 | 2251 ft | 18 kts | 173° |
| 2026-04-18 20:25 | 3.71074 | 11.55129 | 2251 ft | 26 kts | 191° |
| 2026-04-18 20:25 | 3.70870 | 11.55091 | 2248 ft | 26 kts | 192° |
| 2026-04-18 20:26 | 3.70773 | 11.55043 | 2248 ft | 10 kts | 140° |
| 2026-04-18 20:26 | 3.70798 | 11.55080 | 2248 ft | 10 kts | 14° |
| 2026-04-18 20:26 | 3.70993 | 11.55115 | 2250 ft | 54 kts | 9° |
| 2026-04-18 20:26 | 3.71546 | 11.55210 | 2252 ft | 100 kts | 9° |
| 2026-04-18 20:27 | 3.72474 | 11.55371 | 2246 ft | 164 kts | 10° |
| 2026-04-18 20:27 | 3.73791 | 11.55600 | 2420 ft | 206 kts | 9° |
| 2026-04-18 20:27 | 3.75192 | 11.55847 | 2839 ft | 207 kts | 9° |
| 2026-04-18 20:27 | 3.76636 | 11.56102 | 3526 ft | 205 kts | 9° |
| 2026-04-18 20:28 | 3.78070 | 11.56353 | 3837 ft | 215 kts | 9° |
| 2026-04-18 20:28 | 3.79632 | 11.56627 | 4029 ft | 231 kts | 10° |
| 2026-04-18 20:28 | 3.81244 | 11.56910 | 4354 ft | 242 kts | 10° |
| 2026-04-18 20:28 | 3.82975 | 11.57213 | 4630 ft | 258 kts | 11° |
| 2026-04-18 20:29 | 3.84799 | 11.57533 | 5086 ft | 267 kts | 11° |
| 2026-04-18 20:29 | 3.86643 | 11.57856 | 5718 ft | 269 kts | 11° |
| 2026-04-18 20:29 | 3.88508 | 11.58183 | 6347 ft | 270 kts | 12° |
| 2026-04-18 20:29 | 3.90362 | 11.58508 | 6935 ft | 273 kts | 12° |
| 2026-04-18 20:30 | 3.92279 | 11.58844 | 7528 ft | 275 kts | 12° |
| 2026-04-18 20:30 | 3.94198 | 11.59128 | 8084 ft | 279 kts | 3° |
| 2026-04-18 20:30 | 3.96146 | 11.58771 | 8553 ft | 290 kts | 338° |
| 2026-04-18 20:30 | 3.97796 | 11.57582 | 9000 ft | 302 kts | 312° |
| 2026-04-18 20:31 | 3.98796 | 11.55695 | 9420 ft | 313 kts | 284° |
| 2026-04-18 20:31 | 3.99012 | 11.53483 | 9939 ft | 317 kts | 272° |
| 2026-04-18 20:31 | 3.99033 | 11.51269 | 10334 ft | 327 kts | 271° |
| 2026-04-18 20:31 | 3.99042 | 11.48911 | 10539 ft | 344 kts | 271° |
| 2026-04-18 20:32 | 3.99050 | 11.46452 | 10768 ft | 359 kts | 271° |
| 2026-04-18 20:32 | 3.99058 | 11.43881 | 11016 ft | 375 kts | 270° |
| 2026-04-18 20:32 | 3.99066 | 11.41208 | 11266 ft | 390 kts | 271° |
| 2026-04-18 20:32 | 3.99075 | 11.38442 | 11532 ft | 404 kts | 270° |
| 2026-04-18 20:33 | 3.99084 | 11.35546 | 11858 ft | 416 kts | 270° |
| 2026-04-18 20:33 | 3.99092 | 11.32635 | 12345 ft | 422 kts | 270° |
| 2026-04-18 20:33 | 3.99101 | 11.29670 | 12950 ft | 425 kts | 270° |
| 2026-04-18 20:33 | 3.99109 | 11.26676 | 13519 ft | 429 kts | 270° |
| 2026-04-18 20:34 | 3.99117 | 11.23696 | 14138 ft | 432 kts | 270° |
| 2026-04-18 20:34 | 3.99126 | 11.20653 | 14796 ft | 434 kts | 270° |
| 2026-04-18 20:34 | 3.99134 | 11.17630 | 15398 ft | 437 kts | 270° |
| 2026-04-18 20:34 | 3.99142 | 11.14555 | 16018 ft | 440 kts | 270° |
| 2026-04-18 20:35 | 3.99150 | 11.11465 | 16633 ft | 442 kts | 270° |
| 2026-04-18 20:35 | 3.99158 | 11.08350 | 17198 ft | 446 kts | 270° |
| 2026-04-18 20:35 | 3.99166 | 11.05229 | 17771 ft | 449 kts | 270° |
| 2026-04-18 20:35 | 3.99174 | 11.02072 | 18350 ft | 451 kts | 270° |
| 2026-04-18 20:36 | 3.99182 | 10.98942 | 18887 ft | 454 kts | 270° |
| 2026-04-18 20:36 | 3.99190 | 10.95729 | 19395 ft | 457 kts | 270° |
| 2026-04-18 20:36 | 3.99198 | 10.92528 | 19922 ft | 460 kts | 270° |
| 2026-04-18 20:36 | 3.99205 | 10.89302 | 20454 ft | 462 kts | 270° |
| 2026-04-18 20:37 | 3.99213 | 10.86053 | 20987 ft | 464 kts | 270° |
| 2026-04-18 20:37 | 3.99220 | 10.82800 | 21482 ft | 466 kts | 270° |
| 2026-04-18 20:37 | 3.99227 | 10.79513 | 21949 ft | 469 kts | 270° |
| 2026-04-18 20:37 | 3.99234 | 10.76231 | 22420 ft | 472 kts | 270° |
| 2026-04-18 20:38 | 3.99242 | 10.72920 | 22902 ft | 474 kts | 270° |
| 2026-04-18 20:38 | 3.99249 | 10.69589 | 23369 ft | 476 kts | 270° |
| 2026-04-18 20:38 | 3.99256 | 10.66253 | 23836 ft | 478 kts | 270° |
| 2026-04-18 20:38 | 3.99262 | 10.62927 | 24263 ft | 481 kts | 270° |
| 2026-04-18 20:39 | 3.99269 | 10.59533 | 24654 ft | 485 kts | 270° |
| 2026-04-18 20:39 | 3.99276 | 10.56138 | 25064 ft | 487 kts | 270° |
| 2026-04-18 20:39 | 3.99282 | 10.52720 | 25498 ft | 490 kts | 270° |
| 2026-04-18 20:39 | 3.99289 | 10.49299 | 25906 ft | 492 kts | 270° |
| 2026-04-18 20:40 | 3.99295 | 10.45879 | 26375 ft | 493 kts | 270° |
| 2026-04-18 20:40 | 3.99301 | 10.42416 | 26875 ft | 494 kts | 270° |
| 2026-04-18 20:40 | 3.99307 | 10.38976 | 27337 ft | 495 kts | 271° |
| 2026-04-18 20:40 | 3.99313 | 10.35526 | 27747 ft | 497 kts | 270° |
| 2026-04-18 20:41 | 3.99319 | 10.32039 | 28135 ft | 500 kts | 270° |
| 2026-04-18 20:41 | 3.99324 | 10.28514 | 28537 ft | 502 kts | 270° |
| 2026-04-18 20:41 | 3.99330 | 10.25016 | 28951 ft | 504 kts | 270° |
| 2026-04-18 20:41 | 3.99335 | 10.21503 | 29363 ft | 505 kts | 270° |
| 2026-04-18 20:42 | 3.99341 | 10.17970 | 29842 ft | 505 kts | 270° |
| 2026-04-18 20:42 | 3.99346 | 10.14415 | 30380 ft | 504 kts | 270° |
| 2026-04-18 20:42 | 3.99350 | 10.10912 | 30854 ft | 504 kts | 270° |
| 2026-04-18 20:42 | 3.99355 | 10.07395 | 31254 ft | 505 kts | 270° |
| 2026-04-18 20:43 | 3.99360 | 10.03845 | 31671 ft | 506 kts | 270° |
| 2026-04-18 20:43 | 3.99364 | 10.00290 | 31825 ft | 510 kts | 270° |
| 2026-04-18 20:43 | 3.99373 | 9.93163 | 31837 ft | 516 kts | 270° |
| 2026-04-18 20:44 | 3.99380 | 9.85905 | 31829 ft | 521 kts | 270° |
| 2026-04-18 20:44 | 3.99388 | 9.78622 | 31830 ft | 520 kts | 270° |
| 2026-04-18 20:45 | 3.99475 | 9.71306 | 31831 ft | 520 kts | 273° |
| 2026-04-18 20:45 | 4.00021 | 9.64036 | 31828 ft | 521 kts | 274° |
| 2026-04-18 20:46 | 4.00567 | 9.56714 | 31826 ft | 521 kts | 274° |
| 2026-04-18 20:46 | 4.01089 | 9.49468 | 31826 ft | 521 kts | 274° |
| 2026-04-18 20:47 | 4.01602 | 9.42215 | 31833 ft | 519 kts | 273° |
| 2026-04-18 20:47 | 4.02113 | 9.34890 | 31848 ft | 518 kts | 273° |
| 2026-04-18 20:48 | 4.02613 | 9.27689 | 31865 ft | 518 kts | 273° |
| 2026-04-18 20:48 | 4.03111 | 9.20470 | 31874 ft | 519 kts | 273° |
| 2026-04-18 20:49 | 4.03610 | 9.13225 | 31863 ft | 518 kts | 273° |
| 2026-04-18 20:49 | 4.04108 | 9.05970 | 31854 ft | 517 kts | 273° |
| 2026-04-18 20:50 | 4.04602 | 8.98772 | 31837 ft | 517 kts | 273° |
| 2026-04-18 20:50 | 4.05099 | 8.91504 | 31832 ft | 516 kts | 273° |
| 2026-04-18 20:51 | 4.05591 | 8.84304 | 31831 ft | 515 kts | 273° |
| 2026-04-18 20:51 | 4.06084 | 8.77092 | 31831 ft | 516 kts | 273° |
| 2026-04-18 20:52 | 4.06576 | 8.69865 | 31830 ft | 516 kts | 273° |
| 2026-04-18 20:52 | 4.07067 | 8.62657 | 31828 ft | 516 kts | 273° |
| 2026-04-18 20:53 | 4.07562 | 8.55372 | 31824 ft | 517 kts | 273° |
| 2026-04-18 20:53 | 4.08051 | 8.48172 | 31819 ft | 516 kts | 273° |
| 2026-04-18 20:54 | 4.08541 | 8.40947 | 31817 ft | 515 kts | 273° |
| 2026-04-18 20:54 | 4.09028 | 8.33762 | 31818 ft | 515 kts | 273° |
| 2026-04-18 20:55 | 4.09515 | 8.26558 | 31821 ft | 515 kts | 273° |
| 2026-04-18 20:55 | 4.10002 | 8.19335 | 31823 ft | 515 kts | 273° |
| 2026-04-18 20:56 | 4.10489 | 8.12122 | 31827 ft | 516 kts | 273° |
| 2026-04-18 20:56 | 4.10977 | 8.04878 | 31830 ft | 516 kts | 273° |
| 2026-04-18 20:57 | 4.11465 | 7.97608 | 31830 ft | 516 kts | 272° |
| 2026-04-18 20:57 | 4.12177 | 7.90374 | 31824 ft | 516 kts | 281° |
| 2026-04-18 20:58 | 4.14618 | 7.83584 | 31824 ft | 517 kts | 297° |
| 2026-04-18 20:58 | 4.18460 | 7.77425 | 31827 ft | 518 kts | 302° |
| 2026-04-18 20:59 | 4.22437 | 7.71288 | 31832 ft | 517 kts | 302° |
| 2026-04-18 20:59 | 4.26406 | 7.65160 | 31832 ft | 518 kts | 302° |
| 2026-04-18 21:00 | 4.30359 | 7.59053 | 31837 ft | 519 kts | 302° |
| 2026-04-18 21:00 | 4.34309 | 7.52947 | 31840 ft | 518 kts | 302° |
| 2026-04-18 21:01 | 4.38251 | 7.46853 | 31845 ft | 517 kts | 301° |
| 2026-04-18 21:01 | 4.42173 | 7.40785 | 31852 ft | 517 kts | 301° |
| 2026-04-18 21:02 | 4.48095 | 7.31623 | 31870 ft | 516 kts | 301° |
| 2026-04-18 21:03 | 4.52022 | 7.25545 | 31889 ft | 516 kts | 301° |
| 2026-04-18 21:03 | 4.55930 | 7.19495 | 31896 ft | 515 kts | 301° |
| 2026-04-18 21:04 | 4.59874 | 7.13388 | 31895 ft | 514 kts | 301° |
| 2026-04-18 21:04 | 4.63793 | 7.07319 | 31897 ft | 514 kts | 301° |
| 2026-04-18 21:05 | 4.67706 | 7.01256 | 31904 ft | 514 kts | 301° |
| 2026-04-18 21:05 | 4.71648 | 6.95148 | 31904 ft | 513 kts | 301° |
| 2026-04-18 21:06 | 4.75550 | 6.89099 | 31897 ft | 514 kts | 301° |
| 2026-04-18 21:06 | 4.79476 | 6.83012 | 31887 ft | 513 kts | 301° |
| 2026-04-18 21:07 | 4.83368 | 6.76977 | 31871 ft | 513 kts | 301° |
| 2026-04-18 21:07 | 4.87302 | 6.70875 | 31862 ft | 513 kts | 301° |
| 2026-04-18 21:08 | 4.91201 | 6.64825 | 31859 ft | 514 kts | 301° |
| 2026-04-18 21:08 | 4.95103 | 6.58769 | 31852 ft | 514 kts | 301° |
| 2026-04-18 21:09 | 4.99010 | 6.52704 | 31844 ft | 514 kts | 301° |
| 2026-04-18 21:09 | 5.02913 | 6.46643 | 31836 ft | 514 kts | 301° |
| 2026-04-18 21:10 | 5.06824 | 6.40569 | 31837 ft | 514 kts | 301° |
| 2026-04-18 21:10 | 5.10737 | 6.34490 | 31836 ft | 514 kts | 301° |
| 2026-04-18 21:11 | 5.14657 | 6.28398 | 31837 ft | 513 kts | 301° |
| 2026-04-18 21:11 | 5.18551 | 6.22345 | 31840 ft | 513 kts | 301° |
| 2026-04-18 21:12 | 5.22445 | 6.16289 | 31845 ft | 513 kts | 301° |
| 2026-04-18 21:12 | 5.26348 | 6.10219 | 31846 ft | 513 kts | 301° |
| 2026-04-18 21:13 | 5.30237 | 6.04169 | 31848 ft | 513 kts | 301° |
| 2026-04-18 21:13 | 5.34127 | 5.98116 | 31845 ft | 512 kts | 301° |
| 2026-04-18 21:14 | 5.38005 | 5.92080 | 31840 ft | 512 kts | 301° |
| 2026-04-18 21:14 | 5.41893 | 5.86027 | 31838 ft | 512 kts | 301° |
| 2026-04-18 21:15 | 5.45783 | 5.79968 | 31841 ft | 512 kts | 301° |
| 2026-04-18 21:15 | 5.49678 | 5.73899 | 31836 ft | 512 kts | 301° |
| 2026-04-18 21:16 | 5.53567 | 5.67840 | 31838 ft | 512 kts | 301° |
| 2026-04-18 21:16 | 5.57434 | 5.61811 | 31838 ft | 512 kts | 301° |
| 2026-04-18 21:17 | 5.61326 | 5.55744 | 31837 ft | 512 kts | 301° |
| 2026-04-18 21:17 | 5.65204 | 5.49694 | 31832 ft | 511 kts | 301° |
| 2026-04-18 21:18 | 5.69077 | 5.43652 | 31820 ft | 511 kts | 301° |
| 2026-04-18 21:18 | 5.72960 | 5.37592 | 31820 ft | 511 kts | 301° |
| 2026-04-18 21:19 | 5.76830 | 5.31550 | 31823 ft | 511 kts | 301° |
| 2026-04-18 21:19 | 5.80723 | 5.25471 | 31830 ft | 512 kts | 301° |
| 2026-04-18 21:20 | 5.84589 | 5.19433 | 31832 ft | 513 kts | 301° |
| 2026-04-18 21:20 | 5.88467 | 5.13373 | 31830 ft | 512 kts | 301° |
| 2026-04-18 21:21 | 5.92335 | 5.07327 | 31829 ft | 512 kts | 301° |
| 2026-04-18 21:21 | 5.96208 | 5.01272 | 31825 ft | 511 kts | 301° |
| 2026-04-18 21:22 | 6.00064 | 4.95242 | 31830 ft | 511 kts | 301° |
| 2026-04-18 21:22 | 6.03951 | 4.89161 | 31829 ft | 511 kts | 301° |
| 2026-04-18 21:23 | 6.07808 | 4.83124 | 31829 ft | 511 kts | 301° |
| 2026-04-18 21:23 | 6.11659 | 4.77095 | 31825 ft | 511 kts | 301° |
| 2026-04-18 21:24 | 6.15529 | 4.71035 | 31826 ft | 511 kts | 301° |
| 2026-04-18 21:24 | 6.19416 | 4.64946 | 31828 ft | 511 kts | 301° |
| 2026-04-18 21:25 | 6.23274 | 4.58901 | 31827 ft | 511 kts | 301° |
| 2026-04-18 21:25 | 6.27122 | 4.52869 | 31823 ft | 510 kts | 301° |
| 2026-04-18 21:26 | 6.30992 | 4.46802 | 31823 ft | 510 kts | 301° |
| 2026-04-18 21:26 | 6.34840 | 4.40764 | 31826 ft | 510 kts | 301° |
| 2026-04-18 21:27 | 6.38706 | 4.34699 | 31827 ft | 510 kts | 301° |
| 2026-04-18 21:27 | 6.42577 | 4.28623 | 31829 ft | 510 kts | 301° |
| 2026-04-18 21:28 | 6.46413 | 4.22601 | 31829 ft | 512 kts | 301° |
| 2026-04-18 21:28 | 6.50282 | 4.16525 | 31832 ft | 511 kts | 301° |
| 2026-04-18 21:29 | 6.54131 | 4.10477 | 31832 ft | 510 kts | 301° |
| 2026-04-18 21:29 | 6.57985 | 4.04420 | 31832 ft | 511 kts | 301° |
| 2026-04-18 21:30 | 6.61844 | 3.98352 | 31827 ft | 510 kts | 301° |
| 2026-04-18 21:30 | 6.65690 | 3.92304 | 31820 ft | 510 kts | 301° |
| 2026-04-18 21:31 | 6.69548 | 3.86234 | 31818 ft | 510 kts | 301° |
| 2026-04-18 21:31 | 6.73408 | 3.80159 | 31818 ft | 510 kts | 301° |
| 2026-04-18 21:32 | 6.76244 | 3.75693 | 31819 ft | 510 kts | 301° |
| 2026-04-18 21:32 | 6.78980 | 3.71385 | 31820 ft | 509 kts | 301° |
| 2026-04-18 21:33 | 6.82808 | 3.65355 | 31824 ft | 509 kts | 301° |
| 2026-04-18 21:33 | 6.86654 | 3.59295 | 31824 ft | 509 kts | 301° |
| 2026-04-18 21:34 | 6.90473 | 3.53275 | 31833 ft | 509 kts | 301° |
| 2026-04-18 21:34 | 6.94284 | 3.47264 | 31837 ft | 508 kts | 301° |
| 2026-04-18 21:35 | 6.98133 | 3.41193 | 31835 ft | 508 kts | 301° |
| 2026-04-18 21:35 | 7.01942 | 3.35182 | 31837 ft | 509 kts | 301° |
| 2026-04-18 21:36 | 7.05761 | 3.29153 | 31841 ft | 509 kts | 301° |
| 2026-04-18 21:36 | 7.09592 | 3.23103 | 31837 ft | 508 kts | 301° |
| 2026-04-18 21:37 | 7.13403 | 3.17082 | 31835 ft | 508 kts | 301° |
| 2026-04-18 21:37 | 7.17210 | 3.11065 | 31836 ft | 507 kts | 301° |
| 2026-04-18 21:38 | 7.21035 | 3.05017 | 31835 ft | 508 kts | 301° |
| 2026-04-18 21:38 | 7.24858 | 2.98971 | 31838 ft | 509 kts | 301° |
| 2026-04-18 21:39 | 7.28701 | 2.92890 | 31842 ft | 509 kts | 301° |
| 2026-04-18 21:39 | 7.32503 | 2.86873 | 31843 ft | 509 kts | 301° |
| 2026-04-18 21:40 | 7.36343 | 2.80792 | 31843 ft | 510 kts | 301° |
| 2026-04-18 21:40 | 7.40174 | 2.74723 | 31851 ft | 509 kts | 301° |
| 2026-04-18 21:41 | 7.44131 | 2.68751 | 31851 ft | 508 kts | 303° |
| 2026-04-18 21:41 | 7.48093 | 2.62834 | 31847 ft | 509 kts | 303° |
| 2026-04-18 21:42 | 7.52085 | 2.56858 | 31844 ft | 508 kts | 303° |
| 2026-04-18 21:42 | 7.56069 | 2.50885 | 31842 ft | 510 kts | 303° |
| 2026-04-18 21:43 | 7.60033 | 2.44937 | 31839 ft | 508 kts | 303° |
| 2026-04-18 21:43 | 7.64001 | 2.38980 | 31838 ft | 507 kts | 303° |
| 2026-04-18 21:44 | 7.67939 | 2.33063 | 31850 ft | 506 kts | 303° |
| 2026-04-18 21:44 | 7.71893 | 2.27119 | 31853 ft | 505 kts | 303° |
| 2026-04-18 21:45 | 7.75834 | 2.21193 | 31842 ft | 508 kts | 304° |
| 2026-04-18 21:45 | 7.79787 | 2.15246 | 31825 ft | 506 kts | 303° |
| 2026-04-18 21:46 | 7.83736 | 2.09303 | 31834 ft | 507 kts | 304° |
| 2026-04-18 21:46 | 7.87664 | 2.03389 | 31830 ft | 506 kts | 304° |
| 2026-04-18 21:47 | 7.91624 | 1.97423 | 31826 ft | 506 kts | 304° |
| 2026-04-18 21:47 | 7.95543 | 1.91517 | 31830 ft | 504 kts | 304° |
| 2026-04-18 21:48 | 7.99463 | 1.85608 | 31829 ft | 505 kts | 304° |
| 2026-04-18 21:48 | 8.03359 | 1.79732 | 31832 ft | 501 kts | 304° |
| 2026-04-18 21:49 | 8.07282 | 1.73813 | 31833 ft | 504 kts | 304° |
| 2026-04-18 21:49 | 8.11202 | 1.67897 | 31838 ft | 504 kts | 304° |
| 2026-04-18 21:50 | 8.15155 | 1.61929 | 31956 ft | 510 kts | 303° |
| 2026-04-18 21:50 | 8.17120 | 1.58960 | 32322 ft | 509 kts | 303° |
| 2026-04-18 21:50 | 8.19089 | 1.55985 | 32972 ft | 503 kts | 303° |
| 2026-04-18 21:50 | 8.21041 | 1.53036 | 33621 ft | 498 kts | 303° |
| 2026-04-18 21:51 | 8.22975 | 1.50113 | 33832 ft | 502 kts | 303° |
| 2026-04-18 21:51 | 8.26889 | 1.44195 | 33837 ft | 501 kts | 303° |
| 2026-04-18 21:52 | 8.30765 | 1.38332 | 33846 ft | 501 kts | 303° |
| 2026-04-18 21:52 | 8.34686 | 1.32399 | 33848 ft | 501 kts | 303° |
| 2026-04-18 21:53 | 8.38574 | 1.26513 | 33850 ft | 501 kts | 302° |
| 2026-04-18 21:53 | 8.42473 | 1.20608 | 33854 ft | 502 kts | 302° |
| 2026-04-18 21:54 | 8.46373 | 1.14699 | 33860 ft | 501 kts | 302° |
| 2026-04-18 21:54 | 8.50280 | 1.08778 | 33863 ft | 501 kts | 302° |
| 2026-04-18 21:55 | 8.54152 | 1.02906 | 33864 ft | 499 kts | 302° |
| 2026-04-18 21:55 | 8.58051 | 0.96991 | 33865 ft | 501 kts | 302° |
| 2026-04-18 21:56 | 8.61929 | 0.91104 | 33866 ft | 501 kts | 302° |
| 2026-04-18 21:56 | 8.65831 | 0.85180 | 33881 ft | 502 kts | 302° |
| 2026-04-18 21:57 | 8.69711 | 0.79286 | 33887 ft | 502 kts | 302° |
| 2026-04-18 21:57 | 8.73626 | 0.73338 | 33894 ft | 500 kts | 302° |
| 2026-04-18 21:58 | 8.77494 | 0.67456 | 33870 ft | 500 kts | 302° |
| 2026-04-18 21:58 | 8.81373 | 0.61556 | 33843 ft | 501 kts | 302° |
| 2026-04-18 21:59 | 8.85246 | 0.55662 | 33823 ft | 500 kts | 302° |
| 2026-04-18 21:59 | 8.89125 | 0.49757 | 33813 ft | 500 kts | 302° |
| 2026-04-18 22:00 | 8.93026 | 0.43815 | 33814 ft | 502 kts | 302° |
| 2026-04-18 22:00 | 8.96924 | 0.37874 | 33804 ft | 501 kts | 302° |
| 2026-04-18 22:01 | 9.00784 | 0.31990 | 33799 ft | 501 kts | 301° |
| 2026-04-18 22:01 | 9.04683 | 0.26043 | 33798 ft | 500 kts | 301° |
| 2026-04-18 22:02 | 9.08546 | 0.20149 | 33791 ft | 500 kts | 301° |
| 2026-04-18 22:02 | 9.12442 | 0.14202 | 33789 ft | 499 kts | 301° |
| 2026-04-18 22:03 | 9.16293 | 0.08319 | 33788 ft | 499 kts | 301° |
| 2026-04-18 22:03 | 9.20236 | 0.02529 | 33783 ft | 499 kts | 307° |
| 2026-04-18 22:04 | 9.25414 | -0.02256 | 33787 ft | 507 kts | 324° |
| 2026-04-18 22:04 | 9.31765 | -0.05630 | 33792 ft | 510 kts | 333° |
| 2026-04-18 22:05 | 9.38264 | -0.08694 | 33786 ft | 508 kts | 332° |
| 2026-04-18 22:05 | 9.44713 | -0.11746 | 33787 ft | 509 kts | 332° |
| 2026-04-18 22:06 | 9.51194 | -0.14822 | 33781 ft | 508 kts | 332° |
| 2026-04-18 22:06 | 9.57650 | -0.17890 | 33785 ft | 508 kts | 332° |
| 2026-04-18 22:07 | 9.64118 | -0.20968 | 33790 ft | 507 kts | 332° |
| 2026-04-18 22:07 | 9.70556 | -0.24034 | 33792 ft | 506 kts | 332° |
| 2026-04-18 22:08 | 9.76979 | -0.27095 | 33789 ft | 506 kts | 332° |
| 2026-04-18 22:08 | 9.83451 | -0.30181 | 33781 ft | 505 kts | 332° |
| 2026-04-18 22:09 | 9.89846 | -0.33232 | 33774 ft | 504 kts | 332° |
| 2026-04-18 22:09 | 9.96295 | -0.36310 | 33770 ft | 505 kts | 332° |
| 2026-04-18 22:10 | 10.02682 | -0.39359 | 33767 ft | 505 kts | 332° |
| 2026-04-18 22:10 | 10.09111 | -0.42431 | 33767 ft | 505 kts | 332° |
| 2026-04-18 22:11 | 10.15465 | -0.45590 | 33770 ft | 502 kts | 330° |
| 2026-04-18 22:11 | 10.21795 | -0.48888 | 33768 ft | 502 kts | 330° |
| 2026-04-18 22:12 | 10.31170 | -0.53758 | 33778 ft | 500 kts | 330° |
| 2026-04-18 22:12 | 10.37475 | -0.57029 | 33782 ft | 501 kts | 330° |
| 2026-04-18 22:13 | 10.43760 | -0.60288 | 33781 ft | 499 kts | 329° |
| 2026-04-18 22:13 | 10.50019 | -0.63535 | 33779 ft | 501 kts | 329° |
| 2026-04-18 22:14 | 10.56310 | -0.66798 | 33784 ft | 500 kts | 329° |
| 2026-04-18 22:14 | 10.62566 | -0.70044 | 33772 ft | 499 kts | 330° |
| 2026-04-18 22:15 | 10.68830 | -0.73296 | 33776 ft | 499 kts | 329° |
| 2026-04-18 22:15 | 10.75080 | -0.76543 | 33777 ft | 498 kts | 329° |
| 2026-04-18 22:16 | 10.81326 | -0.79788 | 33773 ft | 499 kts | 329° |
| 2026-04-18 22:16 | 10.87559 | -0.83028 | 33772 ft | 499 kts | 329° |
| 2026-04-18 22:17 | 10.93816 | -0.86282 | 33777 ft | 500 kts | 329° |
| 2026-04-18 22:17 | 11.00091 | -0.89547 | 33779 ft | 499 kts | 329° |
| 2026-04-18 22:18 | 11.06454 | -0.92523 | 33778 ft | 500 kts | 332° |
| 2026-04-18 22:18 | 11.12872 | -0.95420 | 33776 ft | 498 kts | 332° |
| 2026-04-18 22:19 | 11.19282 | -0.98332 | 33777 ft | 501 kts | 332° |
| 2026-04-18 22:19 | 11.25728 | -1.01268 | 33779 ft | 499 kts | 332° |
| 2026-04-18 22:20 | 11.32137 | -1.04195 | 33790 ft | 498 kts | 332° |
| 2026-04-18 22:20 | 11.38525 | -1.07117 | 33805 ft | 499 kts | 332° |
| 2026-04-18 22:21 | 11.44946 | -1.10056 | 33807 ft | 500 kts | 332° |
| 2026-04-18 22:21 | 11.51347 | -1.12987 | 33808 ft | 497 kts | 332° |
| 2026-04-18 22:22 | 11.57782 | -1.15938 | 33814 ft | 500 kts | 332° |
| 2026-04-18 22:22 | 11.64184 | -1.18874 | 33812 ft | 501 kts | 332° |
| 2026-04-18 22:23 | 11.70599 | -1.21817 | 33808 ft | 499 kts | 331° |
| 2026-04-18 22:23 | 11.77018 | -1.24764 | 33807 ft | 500 kts | 331° |
| 2026-04-18 22:24 | 11.83425 | -1.27706 | 33803 ft | 498 kts | 331° |
| 2026-04-18 22:24 | 11.89838 | -1.30654 | 33795 ft | 497 kts | 331° |
| 2026-04-18 22:25 | 11.96237 | -1.33597 | 33807 ft | 499 kts | 331° |
| 2026-04-18 22:25 | 12.02614 | -1.36531 | 33803 ft | 499 kts | 331° |
| 2026-04-18 22:26 | 12.09007 | -1.39474 | 33810 ft | 498 kts | 331° |
| 2026-04-18 22:26 | 12.15386 | -1.42412 | 33807 ft | 497 kts | 331° |
| 2026-04-18 22:27 | 12.21757 | -1.45348 | 33800 ft | 499 kts | 331° |
| 2026-04-18 22:27 | 12.28126 | -1.48284 | 33794 ft | 496 kts | 331° |
| 2026-04-18 22:28 | 12.34463 | -1.51207 | 33798 ft | 498 kts | 331° |
| 2026-04-18 22:28 | 12.40874 | -1.54120 | 33795 ft | 494 kts | 332° |
| 2026-04-18 22:29 | 12.47204 | -1.56983 | 33803 ft | 496 kts | 332° |
| 2026-04-18 22:29 | 12.53613 | -1.59885 | 33808 ft | 496 kts | 331° |
| 2026-04-18 22:30 | 12.59979 | -1.62770 | 33811 ft | 497 kts | 332° |
| 2026-04-18 22:30 | 12.66353 | -1.65661 | 33820 ft | 496 kts | 331° |
| 2026-04-18 22:31 | 12.72717 | -1.68549 | 33825 ft | 494 kts | 331° |
| 2026-04-18 22:31 | 12.79035 | -1.71419 | 33823 ft | 496 kts | 332° |
| 2026-04-18 22:32 | 12.85375 | -1.74299 | 33824 ft | 494 kts | 331° |
| 2026-04-18 22:32 | 12.91716 | -1.77182 | 33822 ft | 494 kts | 331° |
| 2026-04-18 22:33 | 12.98028 | -1.80054 | 33823 ft | 496 kts | 331° |
| 2026-04-18 22:33 | 13.04385 | -1.82947 | 33825 ft | 495 kts | 331° |
| 2026-04-18 22:34 | 13.10722 | -1.85833 | 33827 ft | 493 kts | 331° |
| 2026-04-18 22:34 | 13.17079 | -1.88730 | 33834 ft | 496 kts | 331° |
| 2026-04-18 22:35 | 13.23419 | -1.91620 | 33842 ft | 492 kts | 331° |
| 2026-04-18 22:35 | 13.29766 | -1.94516 | 33852 ft | 495 kts | 331° |
| 2026-04-18 22:36 | 13.36084 | -1.97399 | 33848 ft | 492 kts | 331° |
| 2026-04-18 22:36 | 13.42423 | -2.00295 | 33841 ft | 495 kts | 331° |
| 2026-04-18 22:37 | 13.48734 | -2.03178 | 33833 ft | 492 kts | 331° |
| 2026-04-18 22:37 | 13.55070 | -2.06075 | 33824 ft | 494 kts | 331° |
| 2026-04-18 22:38 | 13.61402 | -2.08972 | 33821 ft | 494 kts | 331° |
| 2026-04-18 22:38 | 13.67718 | -2.11863 | 33820 ft | 492 kts | 331° |
| 2026-04-18 22:39 | 13.74024 | -2.14751 | 33817 ft | 493 kts | 331° |
| 2026-04-18 22:39 | 13.80337 | -2.17645 | 33819 ft | 491 kts | 330° |
| 2026-04-18 22:40 | 13.86637 | -2.20534 | 33817 ft | 492 kts | 331° |
| 2026-04-18 22:40 | 13.92909 | -2.23412 | 33817 ft | 492 kts | 331° |
| 2026-04-18 22:41 | 13.99163 | -2.26283 | 33814 ft | 493 kts | 331° |
| 2026-04-18 22:41 | 14.05457 | -2.29175 | 33818 ft | 494 kts | 331° |
| 2026-04-18 22:42 | 14.11727 | -2.32056 | 33815 ft | 487 kts | 330° |
| 2026-04-18 22:42 | 14.17827 | -2.34858 | 33809 ft | 474 kts | 330° |
| 2026-04-18 22:43 | 14.23875 | -2.37643 | 33816 ft | 475 kts | 330° |
| 2026-04-18 22:43 | 14.29911 | -2.40424 | 33821 ft | 474 kts | 330° |
| 2026-04-18 22:44 | 14.36003 | -2.43232 | 33823 ft | 475 kts | 330° |
| 2026-04-18 22:44 | 14.42009 | -2.46000 | 33822 ft | 472 kts | 330° |
| 2026-04-18 22:45 | 14.48080 | -2.48801 | 33821 ft | 475 kts | 330° |
| 2026-04-18 22:45 | 14.54097 | -2.51577 | 33826 ft | 472 kts | 330° |
| 2026-04-18 22:46 | 14.60103 | -2.54350 | 33824 ft | 474 kts | 330° |
| 2026-04-18 22:46 | 14.66104 | -2.57122 | 33822 ft | 471 kts | 330° |
| 2026-04-18 22:47 | 14.72095 | -2.59891 | 33827 ft | 471 kts | 330° |
| 2026-04-18 22:47 | 14.78125 | -2.62681 | 33826 ft | 471 kts | 330° |
| 2026-04-18 22:48 | 14.84145 | -2.65466 | 33830 ft | 470 kts | 330° |
| 2026-04-18 22:48 | 14.90224 | -2.68282 | 33844 ft | 471 kts | 330° |
| 2026-04-18 22:49 | 14.96237 | -2.71068 | 33848 ft | 471 kts | 330° |
| 2026-04-18 22:49 | 15.02317 | -2.73887 | 33843 ft | 470 kts | 330° |
| 2026-04-18 22:50 | 15.08320 | -2.76672 | 33854 ft | 468 kts | 330° |
| 2026-04-18 22:50 | 15.14313 | -2.79456 | 33853 ft | 468 kts | 330° |
| 2026-04-18 22:51 | 15.20331 | -2.82255 | 33852 ft | 470 kts | 330° |
| 2026-04-18 22:51 | 15.26332 | -2.85045 | 33850 ft | 465 kts | 330° |
| 2026-04-18 22:52 | 15.32341 | -2.87843 | 33848 ft | 469 kts | 330° |
| 2026-04-18 22:52 | 15.38384 | -2.90657 | 33845 ft | 467 kts | 329° |
| 2026-04-18 22:53 | 15.44343 | -2.93435 | 33842 ft | 467 kts | 330° |
| 2026-04-18 22:53 | 15.50347 | -2.96235 | 33839 ft | 467 kts | 329° |
| 2026-04-18 22:54 | 15.56344 | -2.99034 | 33839 ft | 467 kts | 329° |
| 2026-04-18 22:54 | 15.62348 | -3.01838 | 33835 ft | 468 kts | 329° |
| 2026-04-18 22:55 | 15.68313 | -3.04624 | 33834 ft | 467 kts | 329° |
| 2026-04-18 22:55 | 15.74311 | -3.07429 | 33833 ft | 468 kts | 329° |
| 2026-04-18 22:56 | 15.80307 | -3.10233 | 33837 ft | 465 kts | 329° |
| 2026-04-18 22:56 | 15.86300 | -3.13042 | 33831 ft | 470 kts | 329° |
| 2026-04-18 22:57 | 15.92306 | -3.15853 | 33831 ft | 466 kts | 329° |
| 2026-04-18 22:57 | 15.98311 | -3.18670 | 33832 ft | 470 kts | 329° |
| 2026-04-18 22:58 | 16.04281 | -3.21469 | 33831 ft | 466 kts | 329° |
| 2026-04-18 22:58 | 16.10258 | -3.24276 | 33828 ft | 470 kts | 329° |
| 2026-04-18 22:59 | 16.16269 | -3.27099 | 33830 ft | 467 kts | 329° |
| 2026-04-18 22:59 | 16.22249 | -3.29909 | 33831 ft | 467 kts | 329° |
| 2026-04-18 23:00 | 16.28242 | -3.32729 | 33833 ft | 468 kts | 329° |
| 2026-04-18 23:00 | 16.34226 | -3.35545 | 33839 ft | 467 kts | 329° |
| 2026-04-18 23:01 | 16.40212 | -3.38363 | 33839 ft | 466 kts | 329° |
| 2026-04-18 23:01 | 16.46196 | -3.41184 | 33837 ft | 466 kts | 329° |
| 2026-04-18 23:02 | 16.52156 | -3.43994 | 33839 ft | 466 kts | 329° |
| 2026-04-18 23:02 | 16.57864 | -3.46688 | 33840 ft | 467 kts | 329° |
| 2026-04-18 23:03 | 16.63848 | -3.49512 | 33846 ft | 464 kts | 328° |
| 2026-04-18 23:03 | 16.69797 | -3.52323 | 33848 ft | 464 kts | 329° |
| 2026-04-18 23:04 | 16.75765 | -3.55145 | 33846 ft | 465 kts | 328° |
| 2026-04-18 23:04 | 16.81737 | -3.57970 | 33848 ft | 464 kts | 328° |
| 2026-04-18 23:05 | 16.87689 | -3.60788 | 33852 ft | 465 kts | 328° |
| 2026-04-18 23:05 | 16.93647 | -3.63611 | 33861 ft | 465 kts | 329° |
| 2026-04-18 23:06 | 16.99639 | -3.66453 | 33885 ft | 466 kts | 328° |
| 2026-04-18 23:06 | 17.05576 | -3.69268 | 33885 ft | 462 kts | 328° |
| 2026-04-18 23:07 | 17.11526 | -3.72094 | 33887 ft | 464 kts | 328° |
| 2026-04-18 23:07 | 17.17480 | -3.74922 | 33890 ft | 463 kts | 328° |
| 2026-04-18 23:08 | 17.23424 | -3.77749 | 33882 ft | 464 kts | 328° |
| 2026-04-18 23:08 | 17.29379 | -3.80582 | 33884 ft | 463 kts | 328° |
| 2026-04-18 23:09 | 17.35354 | -3.83428 | 33885 ft | 466 kts | 328° |
| 2026-04-18 23:09 | 17.41314 | -3.86268 | 33882 ft | 467 kts | 328° |
| 2026-04-18 23:10 | 17.47230 | -3.89086 | 33880 ft | 461 kts | 328° |
| 2026-04-18 23:10 | 17.53177 | -3.91926 | 33882 ft | 465 kts | 328° |
| 2026-04-18 23:11 | 17.59108 | -3.94757 | 33880 ft | 463 kts | 328° |
| 2026-04-18 23:11 | 17.65030 | -3.97588 | 33881 ft | 466 kts | 328° |
| 2026-04-18 23:12 | 17.70974 | -4.00430 | 33892 ft | 467 kts | 328° |
| 2026-04-18 23:12 | 17.76946 | -4.03287 | 33896 ft | 464 kts | 328° |
| 2026-04-18 23:13 | 17.82907 | -4.06143 | 33895 ft | 467 kts | 328° |
| 2026-04-18 23:13 | 17.88853 | -4.08991 | 33896 ft | 462 kts | 328° |
| 2026-04-18 23:14 | 17.94760 | -4.11825 | 33894 ft | 466 kts | 328° |
| 2026-04-18 23:14 | 18.00720 | -4.14685 | 33893 ft | 463 kts | 328° |
| 2026-04-18 23:15 | 18.06657 | -4.17537 | 33898 ft | 465 kts | 328° |
| 2026-04-18 23:15 | 18.12587 | -4.20387 | 33894 ft | 464 kts | 328° |
| 2026-04-18 23:16 | 18.18493 | -4.23229 | 33898 ft | 466 kts | 327° |
| 2026-04-18 23:16 | 18.24424 | -4.26083 | 33892 ft | 462 kts | 327° |
| 2026-04-18 23:17 | 18.30373 | -4.28949 | 33881 ft | 463 kts | 327° |
| 2026-04-18 23:17 | 18.36310 | -4.31813 | 33881 ft | 465 kts | 327° |
| 2026-04-18 23:18 | 18.42253 | -4.34679 | 33874 ft | 463 kts | 327° |
| 2026-04-18 23:18 | 18.48173 | -4.37538 | 33883 ft | 462 kts | 327° |
| 2026-04-18 23:19 | 18.54117 | -4.40412 | 33882 ft | 467 kts | 328° |
| 2026-04-18 23:19 | 18.59997 | -4.43253 | 33876 ft | 460 kts | 328° |
| 2026-04-18 23:20 | 18.65912 | -4.46119 | 33891 ft | 466 kts | 327° |
| 2026-04-18 23:20 | 18.71833 | -4.48985 | 33876 ft | 464 kts | 327° |
| 2026-04-18 23:21 | 18.77751 | -4.51852 | 33884 ft | 461 kts | 327° |
| 2026-04-18 23:21 | 18.83638 | -4.54710 | 33888 ft | 466 kts | 327° |
| 2026-04-18 23:22 | 18.89551 | -4.57578 | 33897 ft | 462 kts | 327° |
| 2026-04-18 23:23 | 18.98406 | -4.61883 | 33904 ft | 466 kts | 327° |
| 2026-04-18 23:23 | 19.04324 | -4.64761 | 33902 ft | 463 kts | 327° |
| 2026-04-18 23:24 | 19.10241 | -4.67643 | 33929 ft | 468 kts | 327° |
| 2026-04-18 23:24 | 19.16167 | -4.70529 | 33918 ft | 467 kts | 327° |
| 2026-04-18 23:25 | 19.22089 | -4.73415 | 33918 ft | 464 kts | 327° |
| 2026-04-18 23:25 | 19.28026 | -4.76313 | 33913 ft | 463 kts | 327° |
| 2026-04-18 23:26 | 19.33882 | -4.79172 | 33910 ft | 463 kts | 327° |
| 2026-04-18 23:26 | 19.39812 | -4.82071 | 33915 ft | 463 kts | 327° |
| 2026-04-18 23:27 | 19.45727 | -4.84966 | 33910 ft | 467 kts | 327° |
| 2026-04-18 23:27 | 19.51676 | -4.87881 | 33910 ft | 467 kts | 327° |
| 2026-04-18 23:28 | 19.57572 | -4.90769 | 33908 ft | 465 kts | 326° |
| 2026-04-18 23:28 | 19.63525 | -4.93691 | 33906 ft | 467 kts | 327° |
| 2026-04-18 23:29 | 19.69465 | -4.96606 | 33906 ft | 465 kts | 327° |
| 2026-04-18 23:29 | 19.75407 | -4.99526 | 33905 ft | 464 kts | 326° |
| 2026-04-18 23:30 | 19.81322 | -5.02434 | 33896 ft | 463 kts | 326° |
| 2026-04-18 23:30 | 19.87205 | -5.05330 | 33893 ft | 464 kts | 326° |
| 2026-04-18 23:31 | 19.93154 | -5.08262 | 33892 ft | 466 kts | 327° |
| 2026-04-18 23:31 | 19.99065 | -5.11175 | 33898 ft | 467 kts | 326° |
| 2026-04-18 23:32 | 20.04991 | -5.14098 | 33900 ft | 462 kts | 327° |
| 2026-04-18 23:32 | 20.10888 | -5.17013 | 33907 ft | 468 kts | 326° |
| 2026-04-18 23:33 | 20.16793 | -5.19928 | 33904 ft | 463 kts | 326° |
| 2026-04-18 23:33 | 20.22728 | -5.22866 | 33913 ft | 466 kts | 326° |
| 2026-04-18 23:34 | 20.28643 | -5.25793 | 33920 ft | 464 kts | 326° |
| 2026-04-18 23:34 | 20.34533 | -5.28712 | 33924 ft | 464 kts | 326° |
| 2026-04-18 23:35 | 20.40442 | -5.31643 | 33919 ft | 465 kts | 327° |
| 2026-04-18 23:35 | 20.46372 | -5.34586 | 33920 ft | 464 kts | 326° |
| 2026-04-18 23:36 | 20.52273 | -5.37517 | 33918 ft | 465 kts | 327° |
| 2026-04-18 23:36 | 20.58162 | -5.40445 | 33911 ft | 464 kts | 327° |
| 2026-04-18 23:37 | 20.64072 | -5.43386 | 33912 ft | 467 kts | 327° |
| 2026-04-18 23:37 | 20.69991 | -5.46333 | 33906 ft | 463 kts | 326° |
| 2026-04-18 23:38 | 20.75927 | -5.49293 | 33907 ft | 467 kts | 327° |
| 2026-04-18 23:38 | 20.81848 | -5.52244 | 33906 ft | 464 kts | 327° |
| 2026-04-18 23:39 | 20.87710 | -5.55170 | 33908 ft | 464 kts | 327° |
| 2026-04-18 23:39 | 20.93612 | -5.58119 | 33909 ft | 464 kts | 327° |
| 2026-04-18 23:40 | 20.99481 | -5.61052 | 33912 ft | 461 kts | 327° |
| 2026-04-18 23:40 | 21.05350 | -5.63990 | 33906 ft | 462 kts | 327° |
| 2026-04-18 23:41 | 21.11237 | -5.66941 | 33930 ft | 465 kts | 326° |
| 2026-04-18 23:41 | 21.17101 | -5.69879 | 33929 ft | 461 kts | 326° |
| 2026-04-18 23:42 | 21.23009 | -5.72846 | 33936 ft | 466 kts | 327° |
| 2026-04-18 23:42 | 21.28921 | -5.75814 | 33937 ft | 464 kts | 327° |
| 2026-04-18 23:43 | 21.34782 | -5.78760 | 33939 ft | 465 kts | 327° |
| 2026-04-18 23:43 | 21.40746 | -5.81761 | 33946 ft | 464 kts | 327° |
| 2026-04-18 23:44 | 21.46619 | -5.84717 | 33944 ft | 463 kts | 327° |
| 2026-04-18 23:44 | 21.52559 | -5.87713 | 33949 ft | 466 kts | 327° |
| 2026-04-18 23:45 | 21.58474 | -5.90696 | 33957 ft | 466 kts | 327° |
| 2026-04-18 23:45 | 21.64452 | -5.93715 | 33959 ft | 468 kts | 327° |
| 2026-04-18 23:46 | 21.70353 | -5.96697 | 33979 ft | 468 kts | 327° |
| 2026-04-18 23:46 | 21.76343 | -5.99728 | 33970 ft | 470 kts | 327° |
| 2026-04-18 23:47 | 21.82326 | -6.02757 | 33972 ft | 470 kts | 327° |
| 2026-04-18 23:47 | 21.88170 | -6.05714 | 33982 ft | 456 kts | 327° |
| 2026-04-18 23:48 | 21.94040 | -6.08697 | 33977 ft | 466 kts | 327° |
| 2026-04-18 23:48 | 22.00053 | -6.11753 | 33983 ft | 475 kts | 327° |
| 2026-04-18 23:49 | 22.06081 | -6.14814 | 33971 ft | 472 kts | 327° |
| 2026-04-18 23:49 | 22.12087 | -6.17869 | 33975 ft | 476 kts | 328° |
| 2026-04-18 23:50 | 22.18116 | -6.20937 | 33980 ft | 475 kts | 327° |
| 2026-04-18 23:50 | 22.24134 | -6.24003 | 33976 ft | 474 kts | 328° |
| 2026-04-18 23:51 | 22.30160 | -6.27076 | 33979 ft | 473 kts | 328° |
| 2026-04-18 23:51 | 22.36143 | -6.30132 | 33976 ft | 475 kts | 328° |
| 2026-04-18 23:52 | 22.42145 | -6.33200 | 33967 ft | 476 kts | 328° |
| 2026-04-18 23:52 | 22.48176 | -6.36284 | 33958 ft | 475 kts | 328° |
| 2026-04-18 23:53 | 22.54210 | -6.39374 | 33964 ft | 475 kts | 328° |
| 2026-04-18 23:53 | 22.60237 | -6.42463 | 33965 ft | 475 kts | 328° |
| 2026-04-18 23:54 | 22.66267 | -6.45557 | 33968 ft | 476 kts | 328° |
| 2026-04-18 23:54 | 22.72334 | -6.48672 | 33969 ft | 476 kts | 328° |
| 2026-04-18 23:55 | 22.78376 | -6.51777 | 33974 ft | 475 kts | 328° |
| 2026-04-18 23:55 | 22.84459 | -6.54908 | 33975 ft | 476 kts | 328° |
| 2026-04-18 23:56 | 22.90480 | -6.58010 | 33976 ft | 479 kts | 328° |
| 2026-04-18 23:56 | 22.96573 | -6.61151 | 33977 ft | 478 kts | 328° |
| 2026-04-18 23:57 | 23.02627 | -6.64275 | 33978 ft | 476 kts | 328° |
| 2026-04-18 23:57 | 23.08703 | -6.67415 | 33997 ft | 478 kts | 328° |
| 2026-04-18 23:58 | 23.14749 | -6.70540 | 33997 ft | 476 kts | 328° |
| 2026-04-18 23:58 | 23.20760 | -6.73652 | 34000 ft | 477 kts | 328° |
| 2026-04-18 23:59 | 23.26808 | -6.76786 | 34002 ft | 478 kts | 328° |
| 2026-04-18 23:59 | 23.32882 | -6.79937 | 33996 ft | 478 kts | 329° |
| 2026-04-19 00:00 | 23.38963 | -6.83094 | 33988 ft | 478 kts | 329° |
| 2026-04-19 00:00 | 23.45049 | -6.86258 | 33991 ft | 480 kts | 329° |
| 2026-04-19 00:01 | 23.51102 | -6.89407 | 33989 ft | 479 kts | 329° |
| 2026-04-19 00:01 | 23.57144 | -6.92554 | 33999 ft | 480 kts | 329° |
| 2026-04-19 00:02 | 23.63210 | -6.95718 | 34013 ft | 479 kts | 329° |
| 2026-04-19 00:02 | 23.69297 | -6.98896 | 34016 ft | 479 kts | 329° |
| 2026-04-19 00:03 | 23.75366 | -7.02069 | 34017 ft | 481 kts | 329° |
| 2026-04-19 00:03 | 23.81435 | -7.05244 | 34018 ft | 480 kts | 330° |
| 2026-04-19 00:04 | 23.87514 | -7.08428 | 34016 ft | 479 kts | 329° |
| 2026-04-19 00:04 | 23.93568 | -7.11603 | 34022 ft | 481 kts | 330° |
| 2026-04-19 00:05 | 23.99685 | -7.14813 | 34020 ft | 480 kts | 330° |
| 2026-04-19 00:05 | 24.05738 | -7.17993 | 34021 ft | 481 kts | 330° |
| 2026-04-19 00:06 | 24.11830 | -7.21197 | 34017 ft | 480 kts | 330° |
| 2026-04-19 00:06 | 24.17918 | -7.24403 | 34022 ft | 482 kts | 330° |
| 2026-04-19 00:07 | 24.23983 | -7.27600 | 34025 ft | 481 kts | 330° |
| 2026-04-19 00:07 | 24.30073 | -7.30814 | 34014 ft | 482 kts | 330° |
| 2026-04-19 00:08 | 24.36168 | -7.34034 | 34013 ft | 482 kts | 330° |
| 2026-04-19 00:08 | 24.42279 | -7.37265 | 34017 ft | 482 kts | 330° |
| 2026-04-19 00:09 | 24.48350 | -7.40479 | 34019 ft | 483 kts | 330° |
| 2026-04-19 00:09 | 24.54484 | -7.43730 | 34025 ft | 484 kts | 330° |
| 2026-04-19 00:10 | 24.60604 | -7.46977 | 34028 ft | 484 kts | 330° |
| 2026-04-19 00:10 | 24.66690 | -7.50209 | 34034 ft | 483 kts | 330° |
| 2026-04-19 00:11 | 24.72800 | -7.53458 | 34033 ft | 483 kts | 330° |
| 2026-04-19 00:11 | 24.78914 | -7.56712 | 34037 ft | 483 kts | 330° |
| 2026-04-19 00:12 | 24.84986 | -7.59948 | 34040 ft | 483 kts | 330° |
| 2026-04-19 00:12 | 24.91092 | -7.63205 | 34045 ft | 484 kts | 330° |
| 2026-04-19 00:13 | 24.97256 | -7.66497 | 34063 ft | 485 kts | 329° |
| 2026-04-19 00:13 | 25.03365 | -7.69763 | 34062 ft | 485 kts | 329° |
| 2026-04-19 00:14 | 25.09466 | -7.73029 | 34060 ft | 485 kts | 329° |
| 2026-04-19 00:14 | 25.15581 | -7.76305 | 34056 ft | 485 kts | 329° |
| 2026-04-19 00:15 | 25.21738 | -7.79608 | 34057 ft | 485 kts | 329° |
| 2026-04-19 00:15 | 25.27825 | -7.82876 | 34059 ft | 485 kts | 329° |
| 2026-04-19 00:16 | 25.33958 | -7.86172 | 34057 ft | 484 kts | 329° |
| 2026-04-19 00:16 | 25.40064 | -7.89459 | 34059 ft | 485 kts | 329° |
| 2026-04-19 00:17 | 25.46185 | -7.92756 | 34064 ft | 485 kts | 329° |
| 2026-04-19 00:17 | 25.52310 | -7.96060 | 34071 ft | 486 kts | 329° |
| 2026-04-19 00:18 | 25.58411 | -7.99354 | 34066 ft | 485 kts | 330° |
| 2026-04-19 00:18 | 25.64570 | -8.02684 | 34070 ft | 487 kts | 329° |
| 2026-04-19 00:19 | 25.70706 | -8.06005 | 34069 ft | 488 kts | 330° |
| 2026-04-19 00:19 | 25.76841 | -8.09329 | 34067 ft | 486 kts | 330° |
| 2026-04-19 00:20 | 25.82941 | -8.12638 | 34070 ft | 486 kts | 330° |
| 2026-04-19 00:20 | 25.89075 | -8.15969 | 34067 ft | 486 kts | 330° |
| 2026-04-19 00:21 | 25.95227 | -8.19314 | 34067 ft | 487 kts | 330° |
| 2026-04-19 00:21 | 26.01330 | -8.22636 | 34072 ft | 486 kts | 330° |
| 2026-04-19 00:22 | 26.07470 | -8.25983 | 34070 ft | 487 kts | 330° |
| 2026-04-19 00:22 | 26.13616 | -8.29336 | 34068 ft | 488 kts | 330° |
| 2026-04-19 00:23 | 26.19798 | -8.32714 | 34069 ft | 490 kts | 330° |
| 2026-04-19 00:23 | 26.25957 | -8.36083 | 34071 ft | 488 kts | 330° |
| 2026-04-19 00:24 | 26.32077 | -8.39433 | 34075 ft | 488 kts | 330° |
| 2026-04-19 00:24 | 26.38236 | -8.42810 | 34074 ft | 489 kts | 330° |
| 2026-04-19 00:25 | 26.44366 | -8.46175 | 34074 ft | 488 kts | 330° |
| 2026-04-19 00:25 | 26.50525 | -8.49560 | 34072 ft | 490 kts | 330° |
| 2026-04-19 00:26 | 26.56694 | -8.52954 | 34072 ft | 490 kts | 330° |
| 2026-04-19 00:26 | 26.62832 | -8.56335 | 34065 ft | 490 kts | 330° |
| 2026-04-19 00:27 | 26.69052 | -8.59767 | 34065 ft | 493 kts | 330° |
| 2026-04-19 00:27 | 26.75212 | -8.63168 | 34062 ft | 493 kts | 330° |
| 2026-04-19 00:28 | 26.81433 | -8.66608 | 34063 ft | 492 kts | 330° |
| 2026-04-19 00:28 | 26.87626 | -8.70036 | 34064 ft | 493 kts | 330° |
| 2026-04-19 00:29 | 26.93807 | -8.73461 | 34068 ft | 491 kts | 330° |
| 2026-04-19 00:29 | 26.99994 | -8.76895 | 34068 ft | 493 kts | 330° |
| 2026-04-19 00:30 | 27.06149 | -8.80314 | 34067 ft | 492 kts | 330° |
| 2026-04-19 00:30 | 27.12347 | -8.83762 | 34062 ft | 493 kts | 330° |
| 2026-04-19 00:31 | 27.18576 | -8.87232 | 34064 ft | 492 kts | 330° |
| 2026-04-19 00:31 | 27.24757 | -8.90680 | 34062 ft | 494 kts | 330° |
| 2026-04-19 00:32 | 27.30940 | -8.94132 | 34061 ft | 494 kts | 330° |
| 2026-04-19 00:32 | 27.37144 | -8.97601 | 34063 ft | 493 kts | 330° |
| 2026-04-19 00:33 | 27.43315 | -9.01055 | 34062 ft | 493 kts | 330° |
| 2026-04-19 00:33 | 27.49540 | -9.04544 | 34058 ft | 494 kts | 330° |
| 2026-04-19 00:34 | 27.58801 | -9.09743 | 34058 ft | 494 kts | 330° |
| 2026-04-19 00:34 | 27.65289 | -9.12510 | 34058 ft | 499 kts | 345° |
| 2026-04-19 00:35 | 27.72274 | -9.13006 | 34052 ft | 507 kts | 4° |
| 2026-04-19 00:35 | 27.79330 | -9.11680 | 34057 ft | 508 kts | 8° |
| 2026-04-19 00:36 | 27.86313 | -9.10224 | 34058 ft | 509 kts | 8° |
| 2026-04-19 00:36 | 27.93345 | -9.08771 | 34059 ft | 509 kts | 8° |
| 2026-04-19 00:37 | 28.00392 | -9.07323 | 34059 ft | 509 kts | 8° |
| 2026-04-19 00:37 | 28.07381 | -9.05891 | 34058 ft | 508 kts | 8° |
| 2026-04-19 00:38 | 28.14426 | -9.04447 | 34052 ft | 508 kts | 8° |
| 2026-04-19 00:38 | 28.21427 | -9.03013 | 34052 ft | 509 kts | 8° |
| 2026-04-19 00:39 | 28.28456 | -9.01572 | 34060 ft | 509 kts | 8° |
| 2026-04-19 00:39 | 28.35447 | -9.00137 | 34061 ft | 510 kts | 8° |
| 2026-04-19 00:40 | 28.42454 | -8.98697 | 34063 ft | 510 kts | 8° |
| 2026-04-19 00:40 | 28.49551 | -8.97237 | 34064 ft | 511 kts | 8° |
| 2026-04-19 00:41 | 28.56577 | -8.95789 | 34061 ft | 512 kts | 8° |
| 2026-04-19 00:41 | 28.63669 | -8.94326 | 34066 ft | 511 kts | 8° |
| 2026-04-19 00:42 | 28.70728 | -8.92867 | 34060 ft | 512 kts | 7° |
| 2026-04-19 00:42 | 28.77779 | -8.91409 | 34063 ft | 511 kts | 7° |
| 2026-04-19 00:43 | 28.84839 | -8.89946 | 34074 ft | 511 kts | 7° |
| 2026-04-19 00:43 | 28.91911 | -8.88479 | 34084 ft | 511 kts | 7° |
| 2026-04-19 00:44 | 28.98977 | -8.87012 | 34093 ft | 512 kts | 7° |
| 2026-04-19 00:44 | 29.06028 | -8.85544 | 34106 ft | 510 kts | 7° |
| 2026-04-19 00:45 | 29.13078 | -8.84076 | 34122 ft | 510 kts | 7° |
| 2026-04-19 00:45 | 29.20063 | -8.82619 | 34140 ft | 509 kts | 7° |
| 2026-04-19 00:46 | 29.27128 | -8.81143 | 34152 ft | 510 kts | 7° |
| 2026-04-19 00:46 | 29.34122 | -8.79680 | 34169 ft | 509 kts | 7° |
| 2026-04-19 00:47 | 29.41135 | -8.78211 | 34183 ft | 507 kts | 7° |
| 2026-04-19 00:47 | 29.48127 | -8.76745 | 34192 ft | 507 kts | 7° |
| 2026-04-19 00:48 | 29.55145 | -8.75270 | 34207 ft | 506 kts | 7° |
| 2026-04-19 00:48 | 29.62123 | -8.73802 | 34226 ft | 506 kts | 7° |
| 2026-04-19 00:49 | 29.69115 | -8.72330 | 34242 ft | 506 kts | 7° |
| 2026-04-19 00:49 | 29.76113 | -8.70853 | 34261 ft | 505 kts | 7° |
| 2026-04-19 00:50 | 29.83064 | -8.69385 | 34260 ft | 504 kts | 7° |
| 2026-04-19 00:50 | 29.90050 | -8.67907 | 34254 ft | 504 kts | 7° |
| 2026-04-19 00:51 | 29.97012 | -8.66432 | 34254 ft | 505 kts | 7° |
| 2026-04-19 00:51 | 30.03945 | -8.64961 | 34256 ft | 504 kts | 7° |
| 2026-04-19 00:52 | 30.10900 | -8.63484 | 34250 ft | 502 kts | 7° |
| 2026-04-19 00:52 | 30.17825 | -8.62010 | 34248 ft | 502 kts | 7° |
| 2026-04-19 00:53 | 30.24608 | -8.60565 | 34246 ft | 501 kts | 7° |
| 2026-04-19 00:53 | 30.31530 | -8.59088 | 34217 ft | 502 kts | 8° |
| 2026-04-19 00:54 | 30.38453 | -8.57610 | 34219 ft | 503 kts | 8° |
| 2026-04-19 00:54 | 30.45394 | -8.56124 | 34199 ft | 502 kts | 8° |
| 2026-04-19 00:55 | 30.52339 | -8.54636 | 34200 ft | 501 kts | 8° |
| 2026-04-19 00:55 | 30.59269 | -8.53149 | 34208 ft | 503 kts | 8° |
| 2026-04-19 00:56 | 30.66258 | -8.51647 | 34226 ft | 503 kts | 8° |
| 2026-04-19 00:56 | 30.73191 | -8.50155 | 34239 ft | 502 kts | 8° |
| 2026-04-19 00:57 | 30.80139 | -8.48657 | 34258 ft | 501 kts | 8° |
| 2026-04-19 00:57 | 30.87051 | -8.47165 | 34311 ft | 501 kts | 8° |
| 2026-04-19 00:58 | 30.94037 | -8.45655 | 34346 ft | 501 kts | 8° |
| 2026-04-19 00:58 | 31.00942 | -8.44160 | 34368 ft | 501 kts | 8° |
| 2026-04-19 00:59 | 31.07889 | -8.42654 | 34351 ft | 502 kts | 8° |
| 2026-04-19 00:59 | 31.14807 | -8.41151 | 34331 ft | 501 kts | 8° |
| 2026-04-19 01:00 | 31.21784 | -8.39634 | 34290 ft | 502 kts | 8° |
| 2026-04-19 01:00 | 31.28651 | -8.38139 | 34236 ft | 502 kts | 8° |
| 2026-04-19 01:01 | 31.35624 | -8.36618 | 34211 ft | 501 kts | 8° |
| 2026-04-19 01:01 | 31.42570 | -8.35101 | 34170 ft | 502 kts | 8° |
| 2026-04-19 01:02 | 31.49506 | -8.33583 | 34148 ft | 503 kts | 9° |
| 2026-04-19 01:02 | 31.56435 | -8.32065 | 34123 ft | 503 kts | 9° |
| 2026-04-19 01:03 | 31.63390 | -8.30539 | 34100 ft | 505 kts | 9° |
| 2026-04-19 01:03 | 31.70361 | -8.29007 | 34086 ft | 503 kts | 9° |
| 2026-04-19 01:04 | 31.77356 | -8.27467 | 34088 ft | 504 kts | 9° |
| 2026-04-19 01:04 | 31.84308 | -8.25934 | 34077 ft | 503 kts | 9° |
| 2026-04-19 01:05 | 31.91232 | -8.24406 | 34076 ft | 504 kts | 9° |
| 2026-04-19 01:05 | 31.98214 | -8.22862 | 34092 ft | 504 kts | 9° |
| 2026-04-19 01:06 | 32.05157 | -8.21324 | 34073 ft | 505 kts | 9° |
| 2026-04-19 01:06 | 32.12092 | -8.19786 | 34060 ft | 505 kts | 9° |
| 2026-04-19 01:07 | 32.19100 | -8.18549 | 34059 ft | 505 kts | 6° |
| 2026-04-19 01:07 | 32.26116 | -8.17448 | 34055 ft | 504 kts | 6° |
| 2026-04-19 01:08 | 32.33106 | -8.16335 | 34053 ft | 504 kts | 6° |
| 2026-04-19 01:08 | 32.40133 | -8.15204 | 34053 ft | 504 kts | 6° |
| 2026-04-19 01:09 | 32.47184 | -8.14062 | 34058 ft | 503 kts | 6° |
| 2026-04-19 01:09 | 32.54150 | -8.12929 | 34057 ft | 503 kts | 6° |
| 2026-04-19 01:10 | 32.61122 | -8.11792 | 34052 ft | 503 kts | 6° |
| 2026-04-19 01:10 | 32.68179 | -8.10639 | 34050 ft | 503 kts | 6° |
| 2026-04-19 01:11 | 32.75159 | -8.09495 | 34048 ft | 502 kts | 6° |
| 2026-04-19 01:11 | 32.82133 | -8.08349 | 34044 ft | 503 kts | 6° |
| 2026-04-19 01:12 | 32.89133 | -8.07195 | 34038 ft | 502 kts | 7° |
| 2026-04-19 01:12 | 32.95890 | -8.04766 | 34038 ft | 505 kts | 25° |
| 2026-04-19 01:13 | 33.02082 | -8.00801 | 34046 ft | 505 kts | 28° |
| 2026-04-19 01:13 | 33.08309 | -7.96702 | 34045 ft | 505 kts | 28° |
| 2026-04-19 01:14 | 33.14525 | -7.92607 | 34047 ft | 505 kts | 28° |
| 2026-04-19 01:14 | 33.20716 | -7.88523 | 34045 ft | 505 kts | 28° |
| 2026-04-19 01:15 | 33.26865 | -7.84462 | 34051 ft | 505 kts | 28° |
| 2026-04-19 01:15 | 33.33080 | -7.80352 | 34045 ft | 506 kts | 28° |
| 2026-04-19 01:16 | 33.39315 | -7.76222 | 34050 ft | 507 kts | 28° |
| 2026-04-19 01:16 | 33.45510 | -7.72111 | 34047 ft | 506 kts | 27° |
| 2026-04-19 01:17 | 33.51700 | -7.67997 | 34049 ft | 505 kts | 27° |
| 2026-04-19 01:17 | 33.57973 | -7.64103 | 34044 ft | 505 kts | 25° |
| 2026-04-19 01:18 | 33.64286 | -7.60309 | 34045 ft | 504 kts | 25° |
| 2026-04-19 01:18 | 33.70627 | -7.56477 | 34037 ft | 504 kts | 25° |
| 2026-04-19 01:19 | 33.76927 | -7.52656 | 34036 ft | 505 kts | 25° |
| 2026-04-19 01:19 | 33.83221 | -7.48828 | 34038 ft | 506 kts | 25° |
| 2026-04-19 01:20 | 33.89536 | -7.44978 | 34039 ft | 505 kts | 25° |
| 2026-04-19 01:20 | 33.95835 | -7.41129 | 34042 ft | 504 kts | 25° |
| 2026-04-19 01:21 | 34.02138 | -7.37272 | 34045 ft | 504 kts | 25° |
| 2026-04-19 01:21 | 34.08477 | -7.33386 | 34043 ft | 504 kts | 25° |
| 2026-04-19 01:22 | 34.14786 | -7.29510 | 34033 ft | 504 kts | 25° |
| 2026-04-19 01:22 | 34.21102 | -7.25622 | 34032 ft | 504 kts | 25° |
| 2026-04-19 01:23 | 34.27399 | -7.21740 | 34032 ft | 504 kts | 25° |
| 2026-04-19 01:23 | 34.33698 | -7.17850 | 34033 ft | 504 kts | 25° |
| 2026-04-19 01:24 | 34.40002 | -7.13950 | 34033 ft | 504 kts | 25° |
| 2026-04-19 01:24 | 34.46309 | -7.10042 | 34034 ft | 505 kts | 25° |
| 2026-04-19 01:25 | 34.52634 | -7.06115 | 34033 ft | 504 kts | 25° |
| 2026-04-19 01:25 | 34.58953 | -7.02186 | 34034 ft | 504 kts | 25° |
| 2026-04-19 01:26 | 34.65256 | -6.98306 | 34033 ft | 504 kts | 25° |
| 2026-04-19 01:26 | 34.71558 | -6.94450 | 34035 ft | 503 kts | 25° |
| 2026-04-19 01:27 | 34.77828 | -6.90604 | 34034 ft | 502 kts | 25° |
| 2026-04-19 01:27 | 34.84139 | -6.86725 | 34035 ft | 503 kts | 25° |
| 2026-04-19 01:28 | 34.90469 | -6.82827 | 34036 ft | 503 kts | 25° |
| 2026-04-19 01:28 | 34.96745 | -6.78955 | 34036 ft | 503 kts | 25° |
| 2026-04-19 01:29 | 35.03033 | -6.75068 | 34036 ft | 503 kts | 25° |
| 2026-04-19 01:29 | 35.09320 | -6.71176 | 34036 ft | 503 kts | 25° |
| 2026-04-19 01:30 | 35.15619 | -6.67269 | 34035 ft | 503 kts | 25° |
| 2026-04-19 01:30 | 35.21917 | -6.63356 | 34035 ft | 503 kts | 25° |
| 2026-04-19 01:31 | 35.28212 | -6.59438 | 34036 ft | 503 kts | 25° |
| 2026-04-19 01:31 | 35.34447 | -6.55550 | 34036 ft | 502 kts | 25° |
| 2026-04-19 01:32 | 35.40756 | -6.51609 | 34036 ft | 502 kts | 24° |
| 2026-04-19 01:32 | 35.47022 | -6.47658 | 34037 ft | 502 kts | 25° |
| 2026-04-19 01:33 | 35.53241 | -6.43596 | 34036 ft | 503 kts | 25° |
| 2026-04-19 01:33 | 35.59424 | -6.39551 | 34037 ft | 503 kts | 25° |
| 2026-04-19 01:34 | 35.65674 | -6.35460 | 34038 ft | 502 kts | 25° |
| 2026-04-19 01:34 | 35.71875 | -6.31396 | 34033 ft | 503 kts | 26° |
| 2026-04-19 01:35 | 35.78132 | -6.27305 | 34033 ft | 503 kts | 26° |
| 2026-04-19 01:35 | 35.84366 | -6.23241 | 34034 ft | 502 kts | 25° |
| 2026-04-19 01:36 | 35.90609 | -6.19214 | 34035 ft | 501 kts | 25° |
| 2026-04-19 01:36 | 35.96814 | -6.15203 | 34034 ft | 503 kts | 25° |
| 2026-04-19 01:37 | 36.03063 | -6.11149 | 34034 ft | 503 kts | 25° |
| 2026-04-19 01:37 | 36.09320 | -6.07081 | 34034 ft | 501 kts | 25° |
| 2026-04-19 01:38 | 36.15552 | -6.03021 | 34035 ft | 501 kts | 25° |
| 2026-04-19 01:38 | 36.21831 | -5.99006 | 34034 ft | 499 kts | 20° |
| 2026-04-19 01:39 | 36.28476 | -5.96747 | 34041 ft | 493 kts | 6° |
| 2026-04-19 01:39 | 36.35299 | -5.95527 | 34048 ft | 492 kts | 5° |
| 2026-04-19 01:40 | 36.42135 | -5.94320 | 34049 ft | 492 kts | 5° |
| 2026-04-19 01:40 | 36.48952 | -5.93111 | 34046 ft | 491 kts | 5° |
| 2026-04-19 01:41 | 36.55799 | -5.91894 | 34054 ft | 491 kts | 5° |
| 2026-04-19 01:41 | 36.62581 | -5.90686 | 34060 ft | 492 kts | 5° |
| 2026-04-19 01:42 | 36.69428 | -5.89463 | 34062 ft | 491 kts | 5° |
| 2026-04-19 01:43 | 36.79640 | -5.87634 | 34061 ft | 490 kts | 5° |
| 2026-04-19 01:43 | 36.86463 | -5.86410 | 34062 ft | 490 kts | 5° |
| 2026-04-19 01:44 | 36.93276 | -5.85185 | 34062 ft | 490 kts | 5° |
| 2026-04-19 01:44 | 37.00067 | -5.83963 | 34059 ft | 490 kts | 5° |
| 2026-04-19 01:45 | 37.06880 | -5.82733 | 34061 ft | 491 kts | 5° |
| 2026-04-19 01:45 | 37.13693 | -5.81502 | 34073 ft | 490 kts | 5° |
| 2026-04-19 01:46 | 37.20497 | -5.80269 | 34076 ft | 490 kts | 5° |
| 2026-04-19 01:46 | 37.27274 | -5.79040 | 34071 ft | 490 kts | 5° |
| 2026-04-19 01:47 | 37.34067 | -5.77806 | 34077 ft | 490 kts | 5° |
| 2026-04-19 01:47 | 37.40932 | -5.76472 | 34068 ft | 491 kts | 10° |
| 2026-04-19 01:48 | 37.47403 | -5.73424 | 34084 ft | 498 kts | 22° |
| 2026-04-19 01:48 | 37.53664 | -5.69643 | 34075 ft | 497 kts | 23° |
| 2026-04-19 01:49 | 37.59948 | -5.65833 | 34084 ft | 498 kts | 23° |
| 2026-04-19 01:49 | 37.66202 | -5.62035 | 34088 ft | 497 kts | 23° |
| 2026-04-19 01:50 | 37.72510 | -5.58199 | 34089 ft | 497 kts | 22° |
| 2026-04-19 01:50 | 37.78784 | -5.54377 | 34103 ft | 497 kts | 22° |
| 2026-04-19 01:51 | 37.85057 | -5.50547 | 34111 ft | 497 kts | 22° |
| 2026-04-19 01:51 | 37.91362 | -5.46692 | 34119 ft | 497 kts | 22° |
| 2026-04-19 01:52 | 37.97597 | -5.42872 | 34120 ft | 497 kts | 22° |
| 2026-04-19 01:52 | 38.03883 | -5.39013 | 34122 ft | 496 kts | 22° |
| 2026-04-19 01:53 | 38.10162 | -5.35151 | 34127 ft | 494 kts | 23° |
| 2026-04-19 01:53 | 38.16404 | -5.31305 | 34117 ft | 495 kts | 23° |
| 2026-04-19 01:54 | 38.22633 | -5.27459 | 34119 ft | 495 kts | 24° |
| 2026-04-19 01:54 | 38.28905 | -5.23580 | 34126 ft | 496 kts | 24° |
| 2026-04-19 01:55 | 38.35194 | -5.19683 | 34128 ft | 496 kts | 24° |
| 2026-04-19 01:55 | 38.41437 | -5.15806 | 34125 ft | 496 kts | 24° |
| 2026-04-19 01:56 | 38.47689 | -5.11916 | 34122 ft | 495 kts | 24° |
| 2026-04-19 01:56 | 38.53939 | -5.08198 | 34125 ft | 491 kts | 19° |
| 2026-04-19 01:57 | 38.60354 | -5.04990 | 34122 ft | 490 kts | 19° |
| 2026-04-19 01:57 | 38.66820 | -5.01729 | 34118 ft | 492 kts | 19° |
| 2026-04-19 01:58 | 38.73229 | -4.98468 | 34118 ft | 492 kts | 20° |
| 2026-04-19 01:58 | 38.79605 | -4.95205 | 34114 ft | 492 kts | 20° |
| 2026-04-19 01:59 | 38.86001 | -4.91918 | 34119 ft | 491 kts | 20° |
| 2026-04-19 01:59 | 38.92376 | -4.88632 | 34119 ft | 489 kts | 20° |
| 2026-04-19 02:00 | 38.98741 | -4.85344 | 34120 ft | 489 kts | 20° |
| 2026-04-19 02:00 | 39.05152 | -4.82024 | 34441 ft | 496 kts | 20° |
| 2026-04-19 02:00 | 39.08361 | -4.80360 | 35143 ft | 492 kts | 20° |
| 2026-04-19 02:01 | 39.11512 | -4.78723 | 35869 ft | 487 kts | 19° |
| 2026-04-19 02:01 | 39.14587 | -4.77125 | 36117 ft | 490 kts | 19° |
| 2026-04-19 02:01 | 39.17720 | -4.75495 | 36125 ft | 489 kts | 19° |
| 2026-04-19 02:02 | 39.24028 | -4.72210 | 36126 ft | 487 kts | 19° |
| 2026-04-19 02:02 | 39.30334 | -4.68919 | 36127 ft | 485 kts | 19° |
| 2026-04-19 02:03 | 39.36624 | -4.65630 | 36126 ft | 486 kts | 19° |
| 2026-04-19 02:03 | 39.42934 | -4.62324 | 36136 ft | 486 kts | 20° |
| 2026-04-19 02:04 | 39.49219 | -4.59025 | 36137 ft | 485 kts | 20° |
| 2026-04-19 02:04 | 39.55535 | -4.55702 | 36138 ft | 486 kts | 20° |
| 2026-04-19 02:05 | 39.61840 | -4.52379 | 36136 ft | 485 kts | 20° |
| 2026-04-19 02:05 | 39.68127 | -4.49060 | 36126 ft | 485 kts | 20° |
| 2026-04-19 02:06 | 39.74377 | -4.45753 | 36129 ft | 485 kts | 20° |
| 2026-04-19 02:06 | 39.80650 | -4.42427 | 36125 ft | 485 kts | 20° |
| 2026-04-19 02:06 | 39.83797 | -4.40753 | 35902 ft | 484 kts | 20° |
| 2026-04-19 02:07 | 39.86922 | -4.39089 | 36104 ft | 485 kts | 20° |
| 2026-04-19 02:07 | 39.93226 | -4.35727 | 36125 ft | 486 kts | 20° |
| 2026-04-19 02:08 | 39.99461 | -4.32313 | 36119 ft | 486 kts | 23° |
| 2026-04-19 02:08 | 40.05625 | -4.28524 | 36113 ft | 486 kts | 23° |
| 2026-04-19 02:09 | 40.11754 | -4.24754 | 36122 ft | 486 kts | 23° |
| 2026-04-19 02:09 | 40.17928 | -4.20962 | 36124 ft | 486 kts | 23° |
| 2026-04-19 02:10 | 40.24044 | -4.17207 | 36124 ft | 485 kts | 23° |
| 2026-04-19 02:10 | 40.30179 | -4.13437 | 36135 ft | 486 kts | 23° |
| 2026-04-19 02:11 | 40.36335 | -4.09648 | 36138 ft | 486 kts | 23° |
| 2026-04-19 02:11 | 40.42486 | -4.05856 | 36153 ft | 485 kts | 23° |
| 2026-04-19 02:12 | 40.48585 | -4.02088 | 36162 ft | 485 kts | 23° |
| 2026-04-19 02:12 | 40.54695 | -3.98307 | 36161 ft | 485 kts | 23° |
| 2026-04-19 02:13 | 40.60806 | -3.94518 | 36179 ft | 485 kts | 22° |
| 2026-04-19 02:13 | 40.66929 | -3.90714 | 36189 ft | 485 kts | 22° |
| 2026-04-19 02:14 | 40.73079 | -3.86885 | 36191 ft | 486 kts | 23° |
| 2026-04-19 02:14 | 40.79166 | -3.83087 | 36196 ft | 485 kts | 22° |
| 2026-04-19 02:15 | 40.85303 | -3.79251 | 36203 ft | 486 kts | 22° |
| 2026-04-19 02:15 | 40.91409 | -3.75426 | 36222 ft | 486 kts | 22° |
| 2026-04-19 02:16 | 40.97559 | -3.71565 | 36227 ft | 485 kts | 22° |
| 2026-04-19 02:16 | 41.03675 | -3.67718 | 36233 ft | 485 kts | 22° |
| 2026-04-19 02:17 | 41.09817 | -3.63846 | 36210 ft | 484 kts | 22° |
| 2026-04-19 02:17 | 41.15914 | -3.59998 | 36199 ft | 484 kts | 21° |
| 2026-04-19 02:18 | 41.22155 | -3.56568 | 36193 ft | 483 kts | 19° |
| 2026-04-19 02:18 | 41.28442 | -3.53181 | 36188 ft | 483 kts | 19° |
| 2026-04-19 02:19 | 41.34654 | -3.49808 | 36186 ft | 483 kts | 19° |
| 2026-04-19 02:19 | 41.40947 | -3.46372 | 36180 ft | 483 kts | 19° |
| 2026-04-19 02:20 | 41.50285 | -3.41249 | 36172 ft | 483 kts | 18° |
| 2026-04-19 02:20 | 41.56553 | -3.37798 | 36175 ft | 483 kts | 19° |
| 2026-04-19 02:21 | 41.62797 | -3.34349 | 36171 ft | 483 kts | 19° |
| 2026-04-19 02:21 | 41.69013 | -3.30910 | 36168 ft | 483 kts | 19° |
| 2026-04-19 02:22 | 41.75315 | -3.27416 | 36165 ft | 493 kts | 19° |
| 2026-04-19 02:22 | 41.81772 | -3.23829 | 36164 ft | 503 kts | 19° |
| 2026-04-19 02:23 | 41.88288 | -3.20198 | 36165 ft | 504 kts | 19° |
| 2026-04-19 02:23 | 41.94740 | -3.16595 | 36169 ft | 504 kts | 19° |
| 2026-04-19 02:24 | 42.01281 | -3.12934 | 36177 ft | 504 kts | 19° |
| 2026-04-19 02:24 | 42.07771 | -3.09294 | 36192 ft | 505 kts | 19° |
| 2026-04-19 02:25 | 42.14273 | -3.05639 | 36210 ft | 504 kts | 19° |
| 2026-04-19 02:25 | 42.20774 | -3.01977 | 36212 ft | 504 kts | 19° |
| 2026-04-19 02:26 | 42.27243 | -2.98325 | 36217 ft | 504 kts | 19° |
| 2026-04-19 02:26 | 42.33763 | -2.94635 | 36197 ft | 505 kts | 19° |
| 2026-04-19 02:27 | 42.40263 | -2.90949 | 36185 ft | 504 kts | 19° |
| 2026-04-19 02:27 | 42.46455 | -2.86458 | 36178 ft | 512 kts | 33° |
| 2026-04-19 02:28 | 42.51940 | -2.80124 | 36176 ft | 516 kts | 38° |
| 2026-04-19 02:28 | 42.57296 | -2.73670 | 36176 ft | 515 kts | 38° |
| 2026-04-19 02:29 | 42.62711 | -2.67127 | 36184 ft | 518 kts | 38° |
| 2026-04-19 02:29 | 42.68082 | -2.60620 | 36181 ft | 517 kts | 38° |
| 2026-04-19 02:30 | 42.73469 | -2.54080 | 36185 ft | 516 kts | 38° |
| 2026-04-19 02:30 | 42.78845 | -2.47537 | 36184 ft | 517 kts | 37° |
| 2026-04-19 02:31 | 42.84227 | -2.40970 | 36185 ft | 518 kts | 37° |
| 2026-04-19 02:31 | 42.89621 | -2.34374 | 36180 ft | 519 kts | 38° |
| 2026-04-19 02:32 | 42.95018 | -2.27756 | 36166 ft | 518 kts | 38° |
| 2026-04-19 02:32 | 43.00377 | -2.21169 | 36166 ft | 519 kts | 38° |
| 2026-04-19 02:33 | 43.05780 | -2.14500 | 36165 ft | 519 kts | 38° |
| 2026-04-19 02:33 | 43.11137 | -2.07873 | 36164 ft | 520 kts | 38° |
| 2026-04-19 02:34 | 43.16528 | -2.01196 | 36170 ft | 520 kts | 38° |
| 2026-04-19 02:34 | 43.21901 | -1.94524 | 36180 ft | 521 kts | 38° |
| 2026-04-19 02:35 | 43.27284 | -1.87824 | 36189 ft | 520 kts | 38° |
| 2026-04-19 02:35 | 43.32919 | -1.81656 | 36193 ft | 513 kts | 26° |
| 2026-04-19 02:36 | 43.39068 | -1.76739 | 36191 ft | 512 kts | 27° |
| 2026-04-19 02:36 | 43.45046 | -1.71340 | 36200 ft | 514 kts | 28° |
| 2026-04-19 02:37 | 43.51056 | -1.65858 | 36196 ft | 513 kts | 28° |
| 2026-04-19 02:37 | 43.56990 | -1.60455 | 36190 ft | 513 kts | 28° |
| 2026-04-19 02:38 | 43.62970 | -1.55010 | 36184 ft | 513 kts | 28° |
| 2026-04-19 02:38 | 43.68932 | -1.49575 | 36177 ft | 513 kts | 28° |
| 2026-04-19 02:39 | 43.74925 | -1.44102 | 36182 ft | 513 kts | 28° |
| 2026-04-19 02:39 | 43.80905 | -1.38630 | 36184 ft | 514 kts | 28° |
| 2026-04-19 02:40 | 43.86880 | -1.33150 | 36177 ft | 514 kts | 29° |
| 2026-04-19 02:40 | 43.92829 | -1.27681 | 36175 ft | 515 kts | 28° |
| 2026-04-19 02:41 | 43.98805 | -1.22174 | 36175 ft | 515 kts | 28° |
| 2026-04-19 02:41 | 44.04781 | -1.16654 | 36173 ft | 516 kts | 28° |
| 2026-04-19 02:42 | 44.10783 | -1.11095 | 36169 ft | 515 kts | 28° |
| 2026-04-19 02:42 | 44.16761 | -1.05547 | 36165 ft | 516 kts | 28° |
| 2026-04-19 02:43 | 44.22767 | -0.99957 | 36160 ft | 516 kts | 28° |
| 2026-04-19 02:43 | 44.28741 | -0.94384 | 36160 ft | 517 kts | 28° |
| 2026-04-19 02:44 | 44.34784 | -0.88733 | 36163 ft | 518 kts | 28° |
| 2026-04-19 02:44 | 44.40921 | -0.83550 | 36165 ft | 510 kts | 18° |
| 2026-04-19 02:45 | 44.47559 | -0.80073 | 36165 ft | 507 kts | 14° |
| 2026-04-19 02:45 | 44.54207 | -0.76750 | 36166 ft | 506 kts | 14° |
| 2026-04-19 02:46 | 44.60884 | -0.73399 | 36165 ft | 507 kts | 14° |
| 2026-04-19 02:46 | 44.67555 | -0.70036 | 36169 ft | 507 kts | 14° |
| 2026-04-19 02:47 | 44.74247 | -0.66653 | 36171 ft | 508 kts | 14° |
| 2026-04-19 02:47 | 44.80955 | -0.63251 | 36176 ft | 509 kts | 14° |
| 2026-04-19 02:48 | 44.87627 | -0.59858 | 36178 ft | 510 kts | 14° |
| 2026-04-19 02:48 | 44.94318 | -0.56446 | 36181 ft | 509 kts | 14° |
| 2026-04-19 02:49 | 45.01004 | -0.53030 | 36174 ft | 511 kts | 14° |
| 2026-04-19 02:49 | 45.07737 | -0.49579 | 36180 ft | 510 kts | 14° |
| 2026-04-19 02:50 | 45.14403 | -0.46155 | 36177 ft | 512 kts | 14° |
| 2026-04-19 02:51 | 45.24446 | -0.40978 | 36174 ft | 509 kts | 14° |
| 2026-04-19 02:51 | 45.31117 | -0.37530 | 36183 ft | 510 kts | 13° |
| 2026-04-19 02:52 | 45.37797 | -0.34068 | 36177 ft | 510 kts | 14° |
| 2026-04-19 02:52 | 45.44509 | -0.30581 | 36178 ft | 512 kts | 14° |
| 2026-04-19 02:53 | 45.51160 | -0.27116 | 36180 ft | 510 kts | 14° |
| 2026-04-19 02:53 | 45.57859 | -0.23617 | 36194 ft | 509 kts | 14° |
| 2026-04-19 02:54 | 45.64530 | -0.20125 | 36196 ft | 510 kts | 14° |
| 2026-04-19 02:54 | 45.71234 | -0.16606 | 36204 ft | 510 kts | 14° |
| 2026-04-19 02:55 | 45.77887 | -0.13105 | 36198 ft | 509 kts | 14° |
| 2026-04-19 02:55 | 45.84605 | -0.09562 | 36202 ft | 509 kts | 14° |
| 2026-04-19 02:56 | 45.91250 | -0.06047 | 36205 ft | 510 kts | 14° |
| 2026-04-19 02:56 | 45.97928 | -0.02506 | 36211 ft | 509 kts | 14° |
| 2026-04-19 02:57 | 46.04621 | 0.01054 | 36208 ft | 507 kts | 14° |
| 2026-04-19 02:57 | 46.11291 | 0.04607 | 36208 ft | 508 kts | 14° |
| 2026-04-19 02:58 | 46.17941 | 0.08172 | 36210 ft | 511 kts | 16° |
| 2026-04-19 02:58 | 46.24243 | 0.13318 | 36221 ft | 523 kts | 30° |
| 2026-04-19 02:59 | 46.30207 | 0.19398 | 36200 ft | 523 kts | 30° |
| 2026-04-19 02:59 | 46.36166 | 0.25504 | 36215 ft | 524 kts | 30° |
| 2026-04-19 03:00 | 46.42165 | 0.31668 | 36226 ft | 523 kts | 30° |
| 2026-04-19 03:00 | 46.48070 | 0.37752 | 36218 ft | 524 kts | 30° |
| 2026-04-19 03:01 | 46.54038 | 0.43918 | 36223 ft | 524 kts | 30° |
| 2026-04-19 03:01 | 46.60014 | 0.50109 | 36235 ft | 524 kts | 30° |
| 2026-04-19 03:02 | 46.65957 | 0.56283 | 36237 ft | 524 kts | 30° |
| 2026-04-19 03:02 | 46.71922 | 0.62497 | 36233 ft | 524 kts | 30° |
| 2026-04-19 03:03 | 46.77854 | 0.68693 | 36231 ft | 526 kts | 31° |
| 2026-04-19 03:03 | 46.83812 | 0.74934 | 36224 ft | 527 kts | 31° |
| 2026-04-19 03:04 | 46.89834 | 0.81259 | 36234 ft | 527 kts | 31° |
| 2026-04-19 03:04 | 46.95808 | 0.87553 | 36246 ft | 527 kts | 31° |
| 2026-04-19 03:05 | 47.01789 | 0.93871 | 36234 ft | 528 kts | 31° |
| 2026-04-19 03:05 | 47.07760 | 1.00196 | 36245 ft | 527 kts | 31° |
| 2026-04-19 03:06 | 47.13736 | 1.06545 | 36591 ft | 528 kts | 31° |
| 2026-04-19 03:06 | 47.16706 | 1.09708 | 36448 ft | 527 kts | 31° |
| 2026-04-19 03:06 | 47.19675 | 1.12874 | 36278 ft | 524 kts | 31° |
| 2026-04-19 03:07 | 47.25618 | 1.19225 | 36244 ft | 523 kts | 31° |
| 2026-04-19 03:07 | 47.31483 | 1.25511 | 36207 ft | 514 kts | 31° |
| 2026-04-19 03:07 | 47.34340 | 1.28584 | 36230 ft | 502 kts | 31° |
| 2026-04-19 03:08 | 47.37162 | 1.31622 | 36220 ft | 499 kts | 31° |
| 2026-04-19 03:08 | 47.42787 | 1.37679 | 36215 ft | 502 kts | 31° |
| 2026-04-19 03:09 | 47.48469 | 1.43818 | 36224 ft | 501 kts | 31° |
| 2026-04-19 03:09 | 47.51282 | 1.46865 | 36050 ft | 495 kts | 31° |
| 2026-04-19 03:09 | 47.54075 | 1.49890 | 35318 ft | 506 kts | 31° |
| 2026-04-19 03:09 | 47.56927 | 1.52982 | 34399 ft | 513 kts | 31° |
| 2026-04-19 03:10 | 47.59836 | 1.56143 | 33466 ft | 514 kts | 31° |
| 2026-04-19 03:10 | 47.62723 | 1.59285 | 32562 ft | 514 kts | 31° |
| 2026-04-19 03:10 | 47.65602 | 1.62423 | 31687 ft | 513 kts | 31° |
| 2026-04-19 03:10 | 47.68459 | 1.65541 | 30872 ft | 510 kts | 32° |
| 2026-04-19 03:11 | 47.71304 | 1.68654 | 30313 ft | 500 kts | 32° |
| 2026-04-19 03:11 | 47.74079 | 1.71697 | 29809 ft | 490 kts | 32° |
| 2026-04-19 03:11 | 47.76801 | 1.74684 | 29301 ft | 483 kts | 32° |
| 2026-04-19 03:11 | 47.79536 | 1.77686 | 28735 ft | 479 kts | 32° |
| 2026-04-19 03:12 | 47.82188 | 1.80603 | 28180 ft | 474 kts | 32° |
| 2026-04-19 03:12 | 47.84832 | 1.83514 | 27656 ft | 469 kts | 32° |
| 2026-04-19 03:12 | 47.87457 | 1.86408 | 27109 ft | 465 kts | 32° |
| 2026-04-19 03:12 | 47.90084 | 1.89307 | 26562 ft | 461 kts | 32° |
| 2026-04-19 03:13 | 47.92659 | 1.92153 | 26020 ft | 456 kts | 32° |
| 2026-04-19 03:13 | 47.95205 | 1.94970 | 25476 ft | 452 kts | 32° |
| 2026-04-19 03:13 | 47.97741 | 1.97779 | 24940 ft | 448 kts | 32° |
| 2026-04-19 03:13 | 48.00226 | 2.00536 | 24404 ft | 444 kts | 32° |
| 2026-04-19 03:14 | 48.02726 | 2.03311 | 23867 ft | 440 kts | 32° |
| 2026-04-19 03:14 | 48.05177 | 2.06037 | 23337 ft | 436 kts | 32° |
| 2026-04-19 03:14 | 48.07583 | 2.08715 | 22812 ft | 433 kts | 32° |
| 2026-04-19 03:14 | 48.10030 | 2.11442 | 22260 ft | 430 kts | 32° |
| 2026-04-19 03:15 | 48.12458 | 2.14150 | 21725 ft | 426 kts | 32° |
| 2026-04-19 03:15 | 48.14842 | 2.16814 | 21192 ft | 423 kts | 32° |
| 2026-04-19 03:15 | 48.17251 | 2.19508 | 20657 ft | 420 kts | 32° |
| 2026-04-19 03:15 | 48.19610 | 2.22149 | 20110 ft | 417 kts | 32° |
| 2026-04-19 03:16 | 48.21942 | 2.24763 | 19577 ft | 413 kts | 32° |
| 2026-04-19 03:16 | 48.24211 | 2.27310 | 19062 ft | 410 kts | 32° |
| 2026-04-19 03:16 | 48.26508 | 2.29889 | 18528 ft | 408 kts | 32° |
| 2026-04-19 03:16 | 48.28791 | 2.32457 | 17996 ft | 405 kts | 32° |
| 2026-04-19 03:17 | 48.31059 | 2.35011 | 17470 ft | 402 kts | 32° |
| 2026-04-19 03:17 | 48.33316 | 2.37555 | 16936 ft | 399 kts | 32° |
| 2026-04-19 03:17 | 48.35567 | 2.40095 | 16404 ft | 397 kts | 32° |
| 2026-04-19 03:17 | 48.37824 | 2.42645 | 15869 ft | 394 kts | 32° |
| 2026-04-19 03:18 | 48.40037 | 2.45147 | 15281 ft | 393 kts | 32° |
| 2026-04-19 03:18 | 48.42222 | 2.47619 | 14640 ft | 394 kts | 32° |
| 2026-04-19 03:18 | 48.44424 | 2.50114 | 14074 ft | 392 kts | 32° |
| 2026-04-19 03:18 | 48.46616 | 2.52602 | 13519 ft | 386 kts | 32° |
| 2026-04-19 03:19 | 48.48744 | 2.55022 | 13176 ft | 374 kts | 32° |
| 2026-04-19 03:19 | 48.50819 | 2.57384 | 12792 ft | 364 kts | 32° |
| 2026-04-19 03:19 | 48.52830 | 2.59676 | 12398 ft | 356 kts | 32° |
| 2026-04-19 03:19 | 48.54786 | 2.61906 | 12020 ft | 347 kts | 32° |
| 2026-04-19 03:20 | 48.56712 | 2.64105 | 11633 ft | 339 kts | 32° |
| 2026-04-19 03:20 | 48.58574 | 2.66236 | 11261 ft | 325 kts | 32° |
| 2026-04-19 03:20 | 48.60365 | 2.68286 | 10930 ft | 313 kts | 32° |
| 2026-04-19 03:20 | 48.62085 | 2.70255 | 10619 ft | 307 kts | 32° |
| 2026-04-19 03:21 | 48.63771 | 2.72186 | 10273 ft | 298 kts | 32° |
| 2026-04-19 03:21 | 48.65432 | 2.74088 | 9951 ft | 292 kts | 32° |
| 2026-04-19 03:21 | 48.67045 | 2.75934 | 9579 ft | 290 kts | 32° |
| 2026-04-19 03:21 | 48.68676 | 2.77801 | 9234 ft | 288 kts | 32° |
| 2026-04-19 03:22 | 48.70260 | 2.79618 | 8950 ft | 283 kts | 32° |
| 2026-04-19 03:22 | 48.71812 | 2.81400 | 8688 ft | 277 kts | 32° |
| 2026-04-19 03:22 | 48.73360 | 2.83179 | 8439 ft | 272 kts | 32° |
| 2026-04-19 03:22 | 48.74868 | 2.84913 | 8186 ft | 267 kts | 32° |
| 2026-04-19 03:23 | 48.76337 | 2.86601 | 7948 ft | 264 kts | 33° |
| 2026-04-19 03:23 | 48.77815 | 2.88303 | 7692 ft | 262 kts | 33° |
| 2026-04-19 03:23 | 48.79281 | 2.89992 | 7430 ft | 260 kts | 33° |
| 2026-04-19 03:23 | 48.80743 | 2.91678 | 7168 ft | 258 kts | 33° |
| 2026-04-19 03:24 | 48.82175 | 2.93331 | 6940 ft | 256 kts | 33° |
| 2026-04-19 03:24 | 48.83605 | 2.94982 | 6703 ft | 253 kts | 33° |
| 2026-04-19 03:24 | 48.85015 | 2.96610 | 6470 ft | 251 kts | 33° |
| 2026-04-19 03:24 | 48.86398 | 2.98209 | 6237 ft | 249 kts | 33° |
| 2026-04-19 03:25 | 48.87866 | 2.99659 | 5985 ft | 244 kts | 18° |
| 2026-04-19 03:25 | 48.89513 | 3.00073 | 5739 ft | 240 kts | 354° |
| 2026-04-19 03:25 | 48.91173 | 2.99598 | 5513 ft | 238 kts | 346° |
| 2026-04-19 03:25 | 48.92810 | 2.98968 | 5320 ft | 237 kts | 346° |
| 2026-04-19 03:26 | 48.94418 | 2.98338 | 5134 ft | 238 kts | 346° |
| 2026-04-19 03:26 | 48.96041 | 2.97704 | 4947 ft | 237 kts | 346° |
| 2026-04-19 03:26 | 48.97644 | 2.97079 | 4764 ft | 236 kts | 346° |
| 2026-04-19 03:26 | 48.99226 | 2.96362 | 4577 ft | 235 kts | 335° |
| 2026-04-19 03:27 | 49.00459 | 2.94737 | 4414 ft | 236 kts | 306° |
| 2026-04-19 03:27 | 49.00978 | 2.92379 | 4259 ft | 235 kts | 280° |
| 2026-04-19 03:27 | 49.01027 | 2.89889 | 4120 ft | 229 kts | 272° |
| 2026-04-19 03:27 | 49.00922 | 2.87494 | 3898 ft | 225 kts | 270° |
| 2026-04-19 03:28 | 49.00794 | 2.85112 | 3602 ft | 224 kts | 270° |
| 2026-04-19 03:28 | 49.00664 | 2.82777 | 3300 ft | 215 kts | 270° |
| 2026-04-19 03:28 | 49.00541 | 2.80563 | 3016 ft | 202 kts | 271° |
| 2026-04-19 03:28 | 49.00431 | 2.78484 | 2758 ft | 190 kts | 271° |
| 2026-04-19 03:29 | 49.00332 | 2.76532 | 2507 ft | 180 kts | 271° |
| 2026-04-19 03:29 | 49.00236 | 2.74664 | 2270 ft | 171 kts | 271° |
| 2026-04-19 03:29 | 49.00146 | 2.72918 | 2054 ft | 160 kts | 272° |
| 2026-04-19 03:29 | 49.00061 | 2.71230 | 1824 ft | 155 kts | 272° |
| 2026-04-19 03:30 | 48.99983 | 2.69595 | 1550 ft | 155 kts | 271° |
| 2026-04-19 03:30 | 48.99899 | 2.67932 | 1331 ft | 154 kts | 270° |
| 2026-04-19 03:30 | 48.99805 | 2.66316 | 1090 ft | 152 kts | 270° |
| 2026-04-19 03:30 | 48.99721 | 2.64689 | 894 ft | 151 kts | 269° |
| 2026-04-19 03:31 | 48.99635 | 2.63121 | 703 ft | 148 kts | 268° |
| 2026-04-19 03:31 | 48.99555 | 2.61539 | 483 ft | 147 kts | 268° |
| 2026-04-19 03:31 | 48.99476 | 2.59991 | 334 ft | 142 kts | 267° |
| 2026-04-19 03:31 | 48.99401 | 2.58598 | 329 ft | 118 kts | 265° |
| 2026-04-19 03:32 | 48.99346 | 2.57576 | 339 ft | 73 kts | 266° |
| 2026-04-19 03:32 | 48.99319 | 2.57038 | 340 ft | 28 kts | 264° |
| 2026-04-19 03:32 | 48.99318 | 2.56855 | 341 ft | 14 kts | 277° |
| 2026-04-19 03:32 | 48.99349 | 2.56718 | 341 ft | 13 kts | 307° |
| 2026-04-19 03:33 | 48.99389 | 2.56668 | 342 ft | 7 kts | 333° |
| 2026-04-19 03:33 | 48.99446 | 2.56647 | 343 ft | 9 kts | 354° |
| 2026-04-19 03:33 | 48.99514 | 2.56636 | 344 ft | 10 kts | 355° |
| 2026-04-19 03:33 | 48.99593 | 2.56626 | 346 ft | 11 kts | 355° |
| 2026-04-19 03:34 | 48.99678 | 2.56617 | 348 ft | 12 kts | 356° |
| 2026-04-19 03:34 | 48.99770 | 2.56606 | 349 ft | 13 kts | 355° |
| 2026-04-19 03:34 | 48.99844 | 2.56596 | 351 ft | 10 kts | 356° |
| 2026-04-19 03:34 | 48.99910 | 2.56637 | 352 ft | 9 kts | 59° |
| 2026-04-19 03:35 | 48.99925 | 2.56725 | 354 ft | 7 kts | 82° |
| 2026-04-19 03:35 | 48.99930 | 2.56802 | 355 ft | 8 kts | 85° |
| 2026-04-19 03:35 | 48.99936 | 2.56913 | 358 ft | 11 kts | 85° |
| 2026-04-19 03:35 | 48.99942 | 2.57019 | 360 ft | 8 kts | 85° |
| 2026-04-19 03:36 | 48.99947 | 2.57124 | 360 ft | 10 kts | 85° |
| 2026-04-19 03:36 | 48.99957 | 2.57230 | 360 ft | 9 kts | 70° |
| 2026-04-19 03:36 | 48.99997 | 2.57278 | 361 ft | 6 kts | 10° |
| 2026-04-19 03:36 | 49.00032 | 2.57304 | 361 ft | 5 kts | 48° |
| 2026-04-19 03:37 | 49.00041 | 2.57348 | 360 ft | 4 kts | 85° |
| 2026-04-19 03:37 | 49.00048 | 2.57403 | 358 ft | 5 kts | 56° |
| 2026-04-19 03:37 | 49.00079 | 2.57422 | 357 ft | 5 kts | 12° |
| 2026-04-19 03:37 | 49.00103 | 2.57430 | 357 ft | 2 kts | 13° |
| 2026-04-19 03:38 | 49.00113 | 2.57434 | 356 ft | 0 kts | 13° |